M I D A S
Marine Information and Data Acquisition System
Tripno 1674 of the Zeeleeuw from 2009-04-09 07:16:14 to 2009-04-09 14:23:04
Back to CruiseResearch ActivitiesStationsMapUnderway DataData graphs

EquipmentUnitsComment
TimeDGPSUTC
LatitudeDGPSDM.mWGS84
LongitudeDGPSDM.mWGS84
TemperatureSBE03/SBE38deg celciusITS90
ConductivitySBE21S/mITS90
SalinitySBE21 Practical Salinity Units
ChlorophylAChelsea fluorimeterg/lCalibrated in Aceton
Missing or incorrect values are displayed as -999
Sea surface data collected by the RV Zeeleeuw from 2009-04-09 07:33:28 to 2009-04-09 14:35:49
                                                                                    Next 1000 lines
Time Latitude Longitude Temperature Conductivity Salinity ChlorophylA
2009-04-09 07:33:39 51°13.663 2°55.956 -999 1.861184 13.483368 -0.373735
2009-04-09 07:33:43 51°13.663 2°55.955 -999 1.860668 13.479021 -0.338911
2009-04-09 07:33:49 51°13.665 2°55.951 -999 1.861081 13.482553 -0.373735
2009-04-09 07:33:54 51°13.666 2°55.947 -999 1.861081 13.482553 -0.373735
2009-04-09 07:33:59 51°13.667 2°55.943 -999 1.861287 13.484182 -0.373735
2009-04-09 07:34:05 51°13.669 2°55.938 -999 1.860874 13.480924 -0.373735
2009-04-09 07:34:10 51°13.67 2°55.933 -999 1.861184 13.483368 -0.373735
2009-04-09 07:34:16 51°13.672 2°55.926 -999 1.861184 13.483642 -0.373735
2009-04-09 07:34:22 51°13.674 2°55.919 -999 1.861081 13.482827 -0.373735
2009-04-09 07:34:27 51°13.676 2°55.913 -999 1.861081 13.482827 -0.373735
2009-04-09 07:34:32 51°13.678 2°55.907 -999 1.861081 13.483101 -0.373735
2009-04-09 07:34:37 51°13.68 2°55.9 -999 1.861184 13.483915 -0.373735
2009-04-09 07:34:42 51°13.682 2°55.893 -999 1.861081 13.483101 -0.373735
2009-04-09 07:34:47 51°13.684 2°55.887 -999 1.861184 13.484189 -0.373735
2009-04-09 07:34:52 51°13.685 2°55.88 -999 1.861081 13.483375 -0.373735
2009-04-09 07:34:57 51°13.687 2°55.872 -999 1.861081 13.483375 -0.373735
2009-04-09 07:35:02 51°13.688 2°55.865 -999 1.861184 13.484463 -0.373735
2009-04-09 07:35:07 51°13.689 2°55.857 -999 1.861081 13.483649 -0.373735
2009-04-09 07:35:12 51°13.69 2°55.85 -999 1.860977 13.482834 -0.373735
2009-04-09 07:35:17 51°13.691 2°55.841 -999 1.861081 13.483649 -0.373735
2009-04-09 07:35:22 51°13.691 2°55.833 -999 1.861081 13.483923 -0.373735
2009-04-09 07:35:27 51°13.692 2°55.826 -999 1.861081 13.483923 -0.373735
2009-04-09 07:35:32 51°13.692 2°55.818 -999 1.861081 13.483923 -0.373735
2009-04-09 07:35:37 51°13.692 2°55.81 -999 1.861081 13.483923 -0.338911
2009-04-09 07:35:42 51°13.692 2°55.802 -999 1.861081 13.484196 -0.373735
2009-04-09 07:35:47 51°13.692 2°55.795 -999 1.860977 13.483382 -0.373735
2009-04-09 07:35:52 51°13.692 2°55.787 -999 1.861081 13.484196 -0.373735
2009-04-09 07:35:57 51°13.692 2°55.78 -999 1.861081 13.484196 -0.373735
2009-04-09 07:36:02 51°13.692 2°55.773 -999 1.861081 13.484196 -0.373735
2009-04-09 07:36:07 51°13.692 2°55.767 -999 1.861081 13.48447 -0.338911
2009-04-09 07:36:12 51°13.692 2°55.761 -999 1.861184 13.485285 -0.373735
2009-04-09 07:36:17 51°13.691 2°55.756 -999 1.861184 13.485285 -0.373735
2009-04-09 07:36:22 51°13.691 2°55.751 -999 1.861597 13.488818 -0.373735
2009-04-09 07:36:27 51°13.691 2°55.748 -999 1.861597 13.488818 -0.373735
2009-04-09 07:36:31 51°13.691 2°55.745 -999 1.861287 13.486374 -0.373735
2009-04-09 07:36:36 51°13.691 2°55.743 -999 1.861494 13.488277 -0.373735
2009-04-09 07:36:41 51°13.691 2°55.741 -999 1.861494 13.488551 -0.373735
2009-04-09 07:36:46 51°13.691 2°55.74 -999 1.862216 13.494528 -0.373735
2009-04-09 07:36:51 51°13.692 2°55.739 -999 1.862113 13.493987 -0.373735
2009-04-09 07:36:56 51°13.692 2°55.74 -999 1.862113 13.493987 -0.373735
2009-04-09 07:37:00 51°13.693 2°55.74 -999 1.86232 13.495617 -0.373735
2009-04-09 07:37:06 51°13.695 2°55.741 -999 1.862113 13.494262 -0.373735
2009-04-09 07:37:10 51°13.697 2°55.742 -999 1.862113 13.494262 -0.373735
2009-04-09 07:37:15 51°13.699 2°55.743 -999 1.862113 13.494262 -0.373735
2009-04-09 07:37:20 51°13.701 2°55.744 -999 1.862216 13.495351 -0.373735
2009-04-09 07:37:25 51°13.703 2°55.745 -999 1.862216 13.495351 -0.373735
2009-04-09 07:37:30 51°13.706 2°55.745 -999 1.862217 13.495625 -0.373735
2009-04-09 07:37:34 51°13.708 2°55.745 -999 1.86232 13.49644 -0.373735
2009-04-09 07:37:39 51°13.711 2°55.745 -999 1.862217 13.495625 -0.373735
2009-04-09 07:37:44 51°13.714 2°55.744 -999 1.862217 13.495625 -0.373735
2009-04-09 07:37:49 51°13.718 2°55.744 -999 1.86232 13.49644 -0.373735
2009-04-09 07:37:54 51°13.721 2°55.742 -999 1.86232 13.49644 -0.373735
2009-04-09 07:37:59 51°13.725 2°55.74 -999 1.862113 13.495084 -0.373735
2009-04-09 07:38:03 51°13.728 2°55.737 -999 1.86201 13.493995 -0.373735
2009-04-09 07:38:09 51°13.733 2°55.732 -999 1.861907 13.492906 -0.373735
2009-04-09 07:38:14 51°13.738 2°55.728 -999 1.86201 13.493721 -0.373735
2009-04-09 07:38:18 51°13.742 2°55.724 -999 1.86201 13.493721 -0.373735
2009-04-09 07:38:23 51°13.748 2°55.72 -999 1.86201 13.493721 -0.373735
2009-04-09 07:38:28 51°13.754 2°55.715 -999 1.862113 13.494536 -0.373735
2009-04-09 07:38:34 51°13.762 2°55.708 -999 1.861907 13.492906 -0.373735
2009-04-09 07:38:38 51°13.767 2°55.703 -999 1.861804 13.492091 -0.373735
2009-04-09 07:38:42 51°13.773 2°55.698 -999 1.861597 13.490462 -0.373735
2009-04-09 07:38:48 51°13.781 2°55.689 -999 1.861597 13.490462 -0.373735
2009-04-09 07:38:53 51°13.789 2°55.68 -999 1.861597 13.490462 -0.373735
2009-04-09 07:38:58 51°13.797 2°55.672 -999 1.861494 13.489647 -0.373735
2009-04-09 07:39:04 51°13.807 2°55.662 -999 1.861494 13.489647 -0.373735
2009-04-09 07:39:08 51°13.815 2°55.656 -999 1.861287 13.488018 -0.373735
2009-04-09 07:39:13 51°13.824 2°55.648 -999 1.861391 13.488832 -0.373735
2009-04-09 07:39:18 51°13.833 2°55.639 -999 1.861494 13.489647 -0.373735
2009-04-09 07:39:22 51°13.841 2°55.632 -999 1.861494 13.489647 -0.373735
2009-04-09 07:39:28 51°13.852 2°55.622 -999 1.861184 13.487477 -0.373735
2009-04-09 07:39:34 51°13.865 2°55.612 -999 1.860978 13.485847 -0.373735
2009-04-09 07:39:38 51°13.873 2°55.605 -999 1.861184 13.487477 -0.373735
2009-04-09 07:39:42 51°13.882 2°55.597 -999 1.860874 13.485033 -0.373735
2009-04-09 07:39:48 51°13.895 2°55.586 -999 1.860978 13.486121 -0.373735
2009-04-09 07:39:54 51°13.908 2°55.575 -999 1.860978 13.486121 -0.373735
2009-04-09 07:39:58 51°13.916 2°55.568 -999 1.861287 13.488566 -0.373735
2009-04-09 07:40:03 51°13.928 2°55.56 -999 1.860771 13.484766 -0.373735
2009-04-09 07:40:08 51°13.939 2°55.55 -999 1.861184 13.488025 -0.373735
2009-04-09 07:40:14 51°13.953 2°55.54 -999 1.860565 13.48341 -0.373735
2009-04-09 07:40:18 51°13.962 2°55.533 -999 1.860565 13.483136 -0.373735
2009-04-09 07:40:23 51°13.974 2°55.524 -999 1.860565 13.483136 -0.373735
2009-04-09 07:40:28 51°13.986 2°55.515 -999 1.860461 13.482321 -0.373735
2009-04-09 07:40:33 51°13.998 2°55.506 -999 1.860978 13.486669 -0.373735
2009-04-09 07:40:38 51°14.01 2°55.497 -999 1.860668 13.484499 -0.373735
2009-04-09 07:40:43 51°14.022 2°55.488 -999 1.860565 13.483684 -0.373735
2009-04-09 07:40:47 51°14.031 2°55.481 -999 1.860461 13.482869 -0.373735
2009-04-09 07:40:54 51°14.048 2°55.468 -999 1.860461 13.482869 -0.373735
2009-04-09 07:40:58 51°14.058 2°55.46 -999 1.860771 13.485314 -0.373735
2009-04-09 07:41:03 51°14.07 2°55.451 -999 1.860152 13.480425 -0.373735
2009-04-09 07:41:08 51°14.083 2°55.442 -999 1.860565 13.483684 -0.373735
2009-04-09 07:41:14 51°14.097 2°55.43 -999 1.860668 13.484773 -0.373735
2009-04-09 07:41:18 51°14.107 2°55.422 -999 1.860152 13.480699 -0.373735
2009-04-09 07:41:23 51°14.12 2°55.412 -999 1.860152 13.480699 -0.373735
2009-04-09 07:41:29 51°14.134 2°55.399 -999 1.860668 13.484773 -0.373735
2009-04-09 07:41:34 51°14.146 2°55.389 -999 1.860668 13.485047 -0.373735
2009-04-09 07:41:39 51°14.158 2°55.378 -999 1.860255 13.481788 -0.373735
2009-04-09 07:41:45 51°14.172 2°55.364 -999 1.860358 13.482602 -0.373735
2009-04-09 07:41:50 51°14.183 2°55.352 -999 1.860771 13.486136 -0.373735
2009-04-09 07:41:54 51°14.192 2°55.343 -999 1.860771 13.486136 -0.373735
2009-04-09 07:41:59 51°14.203 2°55.331 -999 1.860565 13.48478 -0.373735
2009-04-09 07:42:04 51°14.214 2°55.317 -999 1.860771 13.486136 -0.373735
2009-04-09 07:42:09 51°14.225 2°55.305 -999 1.860565 13.484506 -0.373735
2009-04-09 07:42:14 51°14.235 2°55.292 -999 1.860771 13.48641 -0.373735
2009-04-09 07:42:19 51°14.245 2°55.277 -999 1.860461 13.484239 -0.373735
2009-04-09 07:42:24 51°14.255 2°55.263 -999 1.860461 13.484239 -0.373735
2009-04-09 07:42:29 51°14.265 2°55.248 -999 1.860461 13.483965 -0.373735
2009-04-09 07:42:35 51°14.277 2°55.23 -999 1.860668 13.485595 -0.373735
2009-04-09 07:42:39 51°14.284 2°55.217 -999 1.859945 13.479891 -0.373735
2009-04-09 07:42:44 51°14.294 2°55.201 -999 1.859945 13.479617 -0.373735
2009-04-09 07:42:49 51°14.303 2°55.185 -999 1.860358 13.48315 -0.373735
2009-04-09 07:42:54 51°14.313 2°55.17 -999 1.860358 13.48315 -0.373735
2009-04-09 07:42:59 51°14.323 2°55.154 -999 1.860152 13.481521 -0.373735
2009-04-09 07:43:03 51°14.331 2°55.141 -999 1.860565 13.48478 -0.373735
2009-04-09 07:43:08 51°14.341 2°55.125 -999 1.860048 13.48098 -0.373735
2009-04-09 07:43:14 51°14.353 2°55.106 -999 1.860358 13.483424 -0.373735
2009-04-09 07:43:18 51°14.361 2°55.092 -999 1.859429 13.476091 -0.373735
2009-04-09 07:43:24 51°14.374 2°55.073 -999 1.859429 13.476091 -0.373735
2009-04-09 07:43:28 51°14.382 2°55.059 -999 1.860048 13.480706 -0.373735
2009-04-09 07:43:33 51°14.393 2°55.042 -999 1.860358 13.483424 -0.373735
2009-04-09 07:43:38 51°14.405 2°55.026 -999 1.860152 13.482069 -0.373735
2009-04-09 07:43:44 51°14.418 2°55.004 -999 1.859945 13.480439 -0.373735
2009-04-09 07:43:48 51°14.427 2°54.99 -999 1.860048 13.481528 -0.373735
2009-04-09 07:43:54 51°14.44 2°54.967 -999 1.860048 13.481528 -0.373735
2009-04-09 07:43:58 51°14.448 2°54.952 -999 1.859945 13.480713 -0.373735
2009-04-09 07:44:02 51°14.457 2°54.936 -999 1.859842 13.479898 -0.373735
2009-04-09 07:44:09 51°14.473 2°54.91 -999 1.859945 13.480713 -0.373735
2009-04-09 07:44:14 51°14.484 2°54.89 -999 1.859326 13.47555 -0.373735
2009-04-09 07:44:18 51°14.493 2°54.874 -999 1.858913 13.47229 -0.373735
2009-04-09 07:44:23 51°14.504 2°54.853 -999 1.858913 13.47229 -0.373735
2009-04-09 07:44:28 51°14.514 2°54.833 -999 1.859119 13.473646 -0.373735
2009-04-09 07:44:34 51°14.528 2°54.808 -999 1.858913 13.472017 -0.373735
2009-04-09 07:44:38 51°14.537 2°54.792 -999 1.859119 13.473646 -0.373735
2009-04-09 07:44:43 51°14.548 2°54.771 -999 1.859222 13.474461 -0.373735
2009-04-09 07:44:48 51°14.559 2°54.751 -999 1.858913 13.472017 -0.373735
2009-04-09 07:44:54 51°14.572 2°54.726 -999 1.858913 13.472017 -0.373735
2009-04-09 07:44:58 51°14.581 2°54.71 -999 1.858913 13.47229 -0.373735
2009-04-09 07:45:03 51°14.592 2°54.69 -999 1.858913 13.47229 -0.373735
2009-04-09 07:45:07 51°14.601 2°54.673 -999 1.859635 13.478268 -0.373735
2009-04-09 07:45:14 51°14.616 2°54.645 -999 1.859222 13.475283 -0.373735
2009-04-09 07:45:18 51°14.625 2°54.627 -999 1.859532 13.477727 -0.373735
2009-04-09 07:45:23 51°14.635 2°54.607 -999 1.859532 13.477727 -0.373735
2009-04-09 07:45:29 51°14.648 2°54.582 -999 1.859222 13.475283 -0.373735
2009-04-09 07:45:34 51°14.659 2°54.561 -999 1.859016 13.473653 -0.373735
2009-04-09 07:45:38 51°14.667 2°54.544 -999 1.859016 13.473653 -0.373735
2009-04-09 07:45:43 51°14.678 2°54.522 -999 1.859222 13.475283 -0.373735
2009-04-09 07:45:48 51°14.689 2°54.502 -999 1.859119 13.474468 -0.373735
2009-04-09 07:45:54 51°14.702 2°54.476 -999 1.859119 13.474468 -0.373735
2009-04-09 07:45:58 51°14.71 2°54.459 -999 1.858603 13.470394 -0.373735
2009-04-09 07:46:03 51°14.72 2°54.437 -999 1.861184 13.491315 -0.373735
2009-04-09 07:46:09 51°14.733 2°54.412 -999 1.859016 13.474201 -0.373735
2009-04-09 07:46:14 51°14.742 2°54.388 -999 1.859532 13.478549 -0.373735
2009-04-09 07:46:18 51°14.75 2°54.371 -999 1.861804 13.497302 -0.373735
2009-04-09 07:46:23 51°14.758 2°54.347 -999 1.861804 13.497302 -0.373735
2009-04-09 07:46:29 51°14.768 2°54.318 -999 1.859532 13.479371 -0.408559
2009-04-09 07:46:34 51°14.774 2°54.293 -999 1.860255 13.485076 -0.373735
2009-04-09 07:46:38 51°14.779 2°54.273 -999 1.858706 13.472851 -0.373735
2009-04-09 07:46:43 51°14.785 2°54.247 -999 1.860152 13.483987 -0.373735
2009-04-09 07:46:48 51°14.79 2°54.221 -999 1.8585 13.470948 -0.373735
2009-04-09 07:46:54 51°14.796 2°54.189 -999 1.8585 13.470948 -0.373735
2009-04-09 07:46:58 51°14.8 2°54.168 -999 1.859119 13.475563 -0.373735
2009-04-09 07:47:03 51°14.805 2°54.141 -999 1.858706 13.472304 -0.373735
2009-04-09 07:47:08 51°14.809 2°54.114 -999 1.858706 13.47203 -0.373735
2009-04-09 07:47:14 51°14.814 2°54.082 -999 1.859119 13.475563 -0.373735
2009-04-09 07:47:18 51°14.817 2°54.061 -999 1.8585 13.4704 -0.373735
2009-04-09 07:47:22 51°14.819 2°54.039 -999 1.8585 13.4704 -0.373735
2009-04-09 07:47:28 51°14.824 2°54.006 -999 1.858809 13.473118 -0.373735
2009-04-09 07:47:33 51°14.827 2°53.979 -999 1.858913 13.473933 -0.373735
2009-04-09 07:47:38 51°14.831 2°53.952 -999 1.858396 13.469859 -0.373735
2009-04-09 07:47:43 51°14.834 2°53.925 -999 1.858706 13.472577 -0.373735
2009-04-09 07:47:48 51°14.838 2°53.898 -999 1.857983 13.466873 -0.373735
2009-04-09 07:47:53 51°14.841 2°53.87 -999 1.857983 13.466873 -0.373735
2009-04-09 07:47:58 51°14.844 2°53.843 -999 1.858396 13.470133 -0.373735
2009-04-09 07:48:03 51°14.848 2°53.815 -999 1.858603 13.472036 -0.373735
2009-04-09 07:48:08 51°14.851 2°53.787 -999 1.858293 13.469592 -0.373735
2009-04-09 07:48:13 51°14.854 2°53.76 -999 1.857054 13.459539 -0.373735
2009-04-09 07:48:18 51°14.857 2°53.732 -999 1.858087 13.467962 -0.373735
2009-04-09 07:48:23 51°14.86 2°53.705 -999 1.858087 13.467962 -0.373735
2009-04-09 07:48:28 51°14.864 2°53.678 -999 1.857983 13.467421 -0.373735
2009-04-09 07:48:33 51°14.868 2°53.651 -999 1.858087 13.468235 -0.373735
2009-04-09 07:48:38 51°14.872 2°53.624 -999 1.856848 13.458457 -0.373735
2009-04-09 07:48:43 51°14.877 2°53.597 -999 1.85788 13.466332 -0.373735
2009-04-09 07:48:47 51°14.88 2°53.575 -999 1.857261 13.461443 -0.373735
2009-04-09 07:48:54 51°14.888 2°53.538 -999 1.857261 13.461443 -0.373735
2009-04-09 07:48:58 51°14.892 2°53.517 -999 1.857983 13.467421 -0.373735
2009-04-09 07:49:03 51°14.898 2°53.491 -999 1.857674 13.464976 -0.373735
2009-04-09 07:49:08 51°14.903 2°53.465 -999 1.858087 13.468509 -0.373735
2009-04-09 07:49:14 51°14.911 2°53.434 -999 1.857674 13.465249 -0.373735
2009-04-09 07:49:18 51°14.916 2°53.413 -999 1.857674 13.465523 -0.373735
2009-04-09 07:49:23 51°14.922 2°53.388 -999 1.857674 13.465523 -0.373735
2009-04-09 07:49:28 51°14.929 2°53.362 -999 1.857777 13.466338 -0.373735
2009-04-09 07:49:34 51°14.937 2°53.332 -999 1.857777 13.466612 -0.373735
2009-04-09 07:49:38 51°14.942 2°53.312 -999 1.857261 13.462537 -0.373735
2009-04-09 07:49:42 51°14.947 2°53.291 -999 1.857261 13.462537 -0.373735
2009-04-09 07:49:48 51°14.955 2°53.261 -999 1.857467 13.464441 -0.373735
2009-04-09 07:49:53 51°14.962 2°53.235 -999 1.857467 13.464441 -0.373735
2009-04-09 07:49:58 51°14.968 2°53.21 -999 1.857983 13.468516 -0.373735
2009-04-09 07:50:02 51°14.974 2°53.189 -999 1.857364 13.463626 -0.373735
2009-04-09 07:50:08 51°14.982 2°53.159 -999 1.85757 13.465529 -0.373735
2009-04-09 07:50:13 51°14.988 2°53.133 -999 1.85757 13.465529 -0.408559
2009-04-09 07:50:18 51°14.995 2°53.108 -999 1.857983 13.468789 -0.373735
2009-04-09 07:50:22 51°15 2°53.088 -999 1.857983 13.468789 -0.373735
2009-04-09 07:50:28 51°15.009 2°53.058 -999 1.85757 13.465803 -0.373735
2009-04-09 07:50:33 51°15.015 2°53.032 -999 1.857364 13.463899 -0.408559
2009-04-09 07:50:38 51°15.022 2°53.007 -999 1.857467 13.464988 -0.373735
2009-04-09 07:50:42 51°15.028 2°52.987 -999 1.857261 13.463358 -0.373735
2009-04-09 07:50:48 51°15.036 2°52.957 -999 1.857467 13.464988 -0.373735
2009-04-09 07:50:53 51°15.043 2°52.931 -999 1.857467 13.464988 -0.373735
2009-04-09 07:50:58 51°15.05 2°52.906 -999 1.857467 13.465262 -0.408559
2009-04-09 07:51:02 51°15.055 2°52.886 -999 1.857261 13.463906 -0.373735
2009-04-09 07:51:08 51°15.063 2°52.856 -999 1.857261 13.463906 -0.373735
2009-04-09 07:51:13 51°15.07 2°52.83 -999 1.857054 13.462276 -0.373735
2009-04-09 07:51:18 51°15.077 2°52.805 -999 1.857364 13.464994 -0.373735
2009-04-09 07:51:22 51°15.083 2°52.785 -999 1.857364 13.464994 -0.373735
2009-04-09 07:51:28 51°15.091 2°52.755 -999 1.856744 13.460104 -0.373735
2009-04-09 07:51:33 51°15.098 2°52.73 -999 1.856951 13.462008 -0.373735
2009-04-09 07:51:38 51°15.105 2°52.704 -999 1.856641 13.459289 -0.373735
2009-04-09 07:51:43 51°15.111 2°52.679 -999 1.856744 13.460378 -0.373735
2009-04-09 07:51:48 51°15.118 2°52.653 -999 1.856848 13.460919 -0.373735
2009-04-09 07:51:54 51°15.126 2°52.623 -999 1.856848 13.460919 -0.373735
2009-04-09 07:51:58 51°15.132 2°52.603 -999 1.856641 13.459289 -0.373735
2009-04-09 07:52:03 51°15.14 2°52.578 -999 1.856951 13.462008 -0.373735
2009-04-09 07:52:08 51°15.147 2°52.553 -999 1.857467 13.466357 -0.373735
2009-04-09 07:52:13 51°15.155 2°52.528 -999 1.856951 13.462555 -0.373735
2009-04-09 07:52:18 51°15.162 2°52.504 -999 1.857157 13.464186 -0.373735
2009-04-09 07:52:23 51°15.17 2°52.479 -999 1.857157 13.464186 -0.373735
2009-04-09 07:52:27 51°15.176 2°52.459 -999 1.857261 13.465001 -0.373735
2009-04-09 07:52:33 51°15.185 2°52.429 -999 1.857157 13.464459 -0.373735
2009-04-09 07:52:38 51°15.193 2°52.404 -999 1.857157 13.464459 -0.373735
2009-04-09 07:52:43 51°15.201 2°52.379 -999 1.857054 13.463644 -0.373735
2009-04-09 07:52:47 51°15.207 2°52.359 -999 1.856848 13.462014 -0.373735
2009-04-09 07:52:53 51°15.216 2°52.329 -999 1.856848 13.462014 -0.373735
2009-04-09 07:52:58 51°15.224 2°52.304 -999 1.857157 13.464459 -0.408559
2009-04-09 07:53:03 51°15.231 2°52.279 -999 1.857157 13.464733 -0.373735
2009-04-09 07:53:08 51°15.239 2°52.254 -999 1.856951 13.463103 -0.408559
2009-04-09 07:53:14 51°15.248 2°52.224 -999 1.856951 13.463377 -0.373735
2009-04-09 07:53:18 51°15.254 2°52.204 -999 1.857261 13.465822 -0.373735
2009-04-09 07:53:23 51°15.261 2°52.178 -999 1.857261 13.465822 -0.373735
2009-04-09 07:53:28 51°15.269 2°52.153 -999 1.856951 13.46365 -0.373735
2009-04-09 07:53:34 51°15.277 2°52.123 -999 1.856951 13.46365 -0.373735
2009-04-09 07:53:38 51°15.283 2°52.103 -999 1.856951 13.46365 -0.373735
2009-04-09 07:53:42 51°15.289 2°52.082 -999 1.857054 13.464739 -0.373735
2009-04-09 07:53:48 51°15.298 2°52.051 -999 1.857054 13.464739 -0.373735
2009-04-09 07:53:54 51°15.306 2°52.021 -999 1.857054 13.464739 -0.373735
2009-04-09 07:53:58 51°15.312 2°52 -999 1.856848 13.463383 -0.373735
2009-04-09 07:54:02 51°15.318 2°51.98 -999 1.856951 13.464472 -0.373735
2009-04-09 07:54:08 51°15.326 2°51.949 -999 1.857054 13.465287 -0.373735
2009-04-09 07:54:13 51°15.333 2°51.922 -999 1.856745 13.462841 -0.373735
2009-04-09 07:54:18 51°15.34 2°51.896 -999 1.856848 13.463657 -0.373735
2009-04-09 07:54:22 51°15.345 2°51.875 -999 1.856848 13.463657 -0.373735
2009-04-09 07:54:28 51°15.353 2°51.844 -999 1.857054 13.465561 -0.373735
2009-04-09 07:54:33 51°15.36 2°51.818 -999 1.856848 13.46393 -0.373735
2009-04-09 07:54:38 51°15.367 2°51.792 -999 1.856951 13.465019 -0.373735
2009-04-09 07:54:42 51°15.372 2°51.771 -999 1.856641 13.462574 -0.373735
2009-04-09 07:54:48 51°15.38 2°51.74 -999 1.856745 13.463389 -0.373735
2009-04-09 07:54:53 51°15.387 2°51.714 -999 1.856745 13.463389 -0.373735
2009-04-09 07:54:58 51°15.395 2°51.688 -999 1.857261 13.467465 -0.373735
2009-04-09 07:55:02 51°15.401 2°51.668 -999 1.857261 13.467739 -0.373735
2009-04-09 07:55:08 51°15.41 2°51.638 -999 1.856228 13.45986 -0.373735
2009-04-09 07:55:13 51°15.416 2°51.613 -999 1.856022 13.45823 -0.373735
2009-04-09 07:55:18 51°15.423 2°51.587 -999 1.857364 13.469376 -0.373735
2009-04-09 07:55:23 51°15.43 2°51.562 -999 1.857364 13.469376 -0.373735
2009-04-09 07:55:28 51°15.437 2°51.536 -999 1.856951 13.466115 -0.373735
2009-04-09 07:55:33 51°15.444 2°51.511 -999 1.856848 13.4653 -0.373735
2009-04-09 07:55:38 51°15.451 2°51.486 -999 1.856435 13.461765 -0.373735
2009-04-09 07:55:43 51°15.458 2°51.46 -999 1.856745 13.464211 -0.373735
2009-04-09 07:55:48 51°15.465 2°51.434 -999 1.857054 13.46693 -0.373735
2009-04-09 07:55:53 51°15.472 2°51.409 -999 1.857054 13.46693 -0.373735
2009-04-09 07:55:58 51°15.479 2°51.383 -999 1.857054 13.46693 -0.373735
2009-04-09 07:56:03 51°15.486 2°51.357 -999 1.856951 13.466389 -0.373735
2009-04-09 07:56:08 51°15.493 2°51.331 -999 1.856641 13.463943 -0.373735
2009-04-09 07:56:14 51°15.501 2°51.3 -999 1.857571 13.471829 -0.373735
2009-04-09 07:56:18 51°15.507 2°51.28 -999 1.856848 13.466395 -0.373735
2009-04-09 07:56:23 51°15.514 2°51.254 -999 1.856848 13.466395 -0.373735
2009-04-09 07:56:27 51°15.519 2°51.233 -999 1.856848 13.466669 -0.373735
2009-04-09 07:56:33 51°15.528 2°51.202 -999 1.857467 13.471561 -0.373735
2009-04-09 07:56:38 51°15.535 2°51.176 -999 1.857261 13.469931 -0.373735
2009-04-09 07:56:43 51°15.542 2°51.15 -999 1.856538 13.463949 -0.373735
2009-04-09 07:56:47 51°15.548 2°51.13 -999 1.857571 13.472377 -0.373735
2009-04-09 07:56:53 51°15.556 2°51.099 -999 1.857571 13.472377 -0.373735
2009-04-09 07:56:58 51°15.564 2°51.073 -999 1.856435 13.463134 -0.373735
2009-04-09 07:57:03 51°15.57 2°51.047 -999 1.857158 13.468567 -0.373735
2009-04-09 07:57:08 51°15.578 2°51.021 -999 1.856641 13.464765 -0.373735
2009-04-09 07:57:13 51°15.585 2°50.996 -999 1.856745 13.46558 -0.373735
2009-04-09 07:57:18 51°15.592 2°50.97 -999 1.857777 13.474008 -0.373735
2009-04-09 07:57:22 51°15.597 2°50.949 -999 1.857777 13.474008 -0.373735
2009-04-09 07:57:28 51°15.605 2°50.918 -999 1.858913 13.484075 -0.373735
2009-04-09 07:57:34 51°15.611 2°50.885 -999 1.858293 13.478907 -0.373735
2009-04-09 07:57:38 51°15.615 2°50.864 -999 1.857571 13.473199 -0.373735
2009-04-09 07:57:42 51°15.618 2°50.842 -999 1.858293 13.478907 -0.373735
2009-04-09 07:57:48 51°15.622 2°50.809 -999 1.856951 13.46858 -0.373735
2009-04-09 07:57:54 51°15.626 2°50.776 -999 1.856951 13.46858 -0.373735
2009-04-09 07:57:58 51°15.627 2°50.753 -999 1.857467 13.472658 -0.373735
2009-04-09 07:58:02 51°15.63 2°50.731 -999 1.857054 13.469396 -0.373735
2009-04-09 07:58:08 51°15.632 2°50.697 -999 1.857674 13.474015 -0.373735
2009-04-09 07:58:13 51°15.634 2°50.669 -999 1.856538 13.465045 -0.373735
2009-04-09 07:58:18 51°15.636 2°50.641 -999 1.856641 13.46586 -0.373735
2009-04-09 07:58:22 51°15.637 2°50.618 -999 1.856641 13.46586 -0.373735
2009-04-09 07:58:28 51°15.639 2°50.584 -999 1.856435 13.463955 -0.373735
2009-04-09 07:58:33 51°15.641 2°50.556 -999 1.857158 13.469663 -0.373735
2009-04-09 07:58:38 51°15.642 2°50.528 -999 1.856641 13.466134 -0.373735
2009-04-09 07:58:42 51°15.644 2°50.505 -999 1.856332 13.463962 -0.373735
2009-04-09 07:58:48 51°15.645 2°50.472 -999 1.856538 13.465867 -0.373735
2009-04-09 07:58:53 51°15.647 2°50.443 -999 1.856538 13.465867 -0.373735
2009-04-09 07:58:58 51°15.648 2°50.415 -999 1.856951 13.469402 -0.373735
2009-04-09 07:59:02 51°15.65 2°50.393 -999 1.856745 13.467772 -0.373735
2009-04-09 07:59:08 51°15.651 2°50.359 -999 1.856332 13.46451 -0.373735
2009-04-09 07:59:13 51°15.653 2°50.331 -999 1.856332 13.46451 -0.373735
2009-04-09 07:59:18 51°15.654 2°50.302 -999 1.856538 13.466415 -0.373735
2009-04-09 07:59:23 51°15.656 2°50.274 -999 1.856538 13.466415 -0.373735
2009-04-09 07:59:28 51°15.657 2°50.246 -999 1.856125 13.463427 -0.373735
2009-04-09 07:59:33 51°15.658 2°50.218 -999 1.855919 13.461522 -0.373735
2009-04-09 07:59:38 51°15.66 2°50.189 -999 1.855815 13.46098 -0.373735
2009-04-09 07:59:43 51°15.661 2°50.161 -999 1.856125 13.463427 -0.373735
2009-04-09 07:59:48 51°15.663 2°50.133 -999 1.856125 13.463427 -0.373735
2009-04-09 07:59:53 51°15.664 2°50.105 -999 1.856125 13.463427 -0.373735
2009-04-09 07:59:58 51°15.665 2°50.076 -999 1.856125 13.463427 -0.373735
2009-04-09 08:00:03 51°15.667 2°50.048 -999 1.856228 13.464242 -0.373735
2009-04-09 08:00:08 51°15.668 2°50.02 -999 1.855815 13.460706 -0.373735
2009-04-09 08:00:13 51°15.67 2°49.992 -999 1.856228 13.464242 -0.373735
2009-04-09 08:00:18 51°15.672 2°49.964 -999 1.854886 13.453367 -0.373735
2009-04-09 08:00:23 51°15.673 2°49.936 -999 1.854886 13.453367 -0.373735
2009-04-09 08:00:27 51°15.674 2°49.914 -999 1.856641 13.467778 -0.373735
2009-04-09 08:00:33 51°15.676 2°49.88 -999 1.855609 13.459623 -0.373735
2009-04-09 08:00:38 51°15.677 2°49.852 -999 1.856228 13.46479 -0.373735
2009-04-09 08:00:43 51°15.679 2°49.824 -999 1.855609 13.459897 -0.373735
2009-04-09 08:00:48 51°15.681 2°49.796 -999 1.855712 13.460712 -0.373735
2009-04-09 08:00:53 51°15.682 2°49.768 -999 1.855712 13.460712 -0.373735
2009-04-09 08:00:58 51°15.684 2°49.74 -999 1.856228 13.465064 -0.373735
2009-04-09 08:01:03 51°15.685 2°49.713 -999 1.855402 13.458814 -0.373735
2009-04-09 08:01:08 51°15.687 2°49.685 -999 1.856022 13.463981 -0.373735
2009-04-09 08:01:13 51°15.688 2°49.657 -999 1.855402 13.459088 -0.373735
2009-04-09 08:01:18 51°15.69 2°49.629 -999 1.855609 13.460719 -0.373735
2009-04-09 08:01:22 51°15.691 2°49.607 -999 1.855609 13.460719 -0.373735
2009-04-09 08:01:28 51°15.692 2°49.574 -999 1.856745 13.470238 -0.373735
2009-04-09 08:01:33 51°15.694 2°49.546 -999 1.855299 13.45882 -0.373735
2009-04-09 08:01:38 51°15.695 2°49.518 -999 1.855919 13.463713 -0.373735
2009-04-09 08:01:42 51°15.696 2°49.496 -999 1.855919 13.463713 -0.373735
2009-04-09 08:01:48 51°15.698 2°49.463 -999 1.855712 13.462082 -0.373735
2009-04-09 08:01:53 51°15.699 2°49.435 -999 1.855712 13.462082 -0.373735
2009-04-09 08:01:58 51°15.701 2°49.407 -999 1.855609 13.460993 -0.373735
2009-04-09 08:02:02 51°15.702 2°49.385 -999 1.856022 13.464529 -0.373735
2009-04-09 08:02:08 51°15.704 2°49.352 -999 1.855196 13.458004 -0.373735
2009-04-09 08:02:13 51°15.705 2°49.324 -999 1.856022 13.464803 -0.373735
2009-04-09 08:02:18 51°15.706 2°49.296 -999 1.855712 13.46263 -0.373735
2009-04-09 08:02:22 51°15.707 2°49.274 -999 1.855712 13.46263 -0.373735
2009-04-09 08:02:28 51°15.709 2°49.241 -999 1.855506 13.461273 -0.373735
2009-04-09 08:02:33 51°15.711 2°49.213 -999 1.855815 13.46372 -0.373735
2009-04-09 08:02:38 51°15.712 2°49.186 -999 1.855299 13.459641 -0.373735
2009-04-09 08:02:42 51°15.713 2°49.163 -999 1.855919 13.464535 -0.373735
2009-04-09 08:02:48 51°15.715 2°49.13 -999 1.855506 13.461273 -0.373735
2009-04-09 08:02:53 51°15.716 2°49.102 -999 1.855506 13.461273 -0.373735
2009-04-09 08:02:58 51°15.717 2°49.075 -999 1.855609 13.462362 -0.373735
2009-04-09 08:03:02 51°15.719 2°49.053 -999 1.855712 13.463178 -0.373735
2009-04-09 08:03:08 51°15.72 2°49.019 -999 1.855712 13.463726 -0.373735
2009-04-09 08:03:13 51°15.722 2°48.992 -999 1.855506 13.462643 -0.373735
2009-04-09 08:03:18 51°15.723 2°48.964 -999 1.855299 13.461285 -0.373735
2009-04-09 08:03:23 51°15.725 2°48.936 -999 1.855299 13.461285 -0.373735
2009-04-09 08:03:28 51°15.726 2°48.908 -999 1.855609 13.463458 -0.373735
2009-04-09 08:03:33 51°15.727 2°48.88 -999 1.855402 13.461553 -0.373735
2009-04-09 08:03:38 51°15.729 2°48.852 -999 1.855712 13.464274 -0.373735
2009-04-09 08:03:43 51°15.73 2°48.825 -999 1.855402 13.461553 -0.373735
2009-04-09 08:03:48 51°15.731 2°48.797 -999 1.855402 13.461553 -0.373735
2009-04-09 08:03:53 51°15.732 2°48.769 -999 1.855402 13.461553 -0.373735
2009-04-09 08:03:58 51°15.734 2°48.741 -999 1.855506 13.462643 -0.373735
2009-04-09 08:04:03 51°15.735 2°48.713 -999 1.855299 13.461011 -0.373735
2009-04-09 08:04:07 51°15.736 2°48.69 -999 1.855506 13.462643 -0.373735
2009-04-09 08:04:13 51°15.737 2°48.656 -999 1.855196 13.460743 -0.373735
2009-04-09 08:04:18 51°15.739 2°48.628 -999 1.855402 13.462649 -0.373735
2009-04-09 08:04:23 51°15.74 2°48.6 -999 1.855402 13.462649 -0.373735
2009-04-09 08:04:27 51°15.741 2°48.578 -999 1.855609 13.464554 -0.373735
2009-04-09 08:04:34 51°15.743 2°48.538 -999 1.855506 13.463465 -0.373735
2009-04-09 08:04:38 51°15.744 2°48.516 -999 1.854886 13.45857 -0.373735
2009-04-09 08:04:43 51°15.745 2°48.488 -999 1.855299 13.461833 -0.373735
2009-04-09 08:04:48 51°15.746 2°48.459 -999 1.855609 13.46428 -0.373735
2009-04-09 08:04:54 51°15.748 2°48.426 -999 1.855609 13.46428 -0.373735
2009-04-09 08:04:58 51°15.749 2°48.403 -999 1.855093 13.460202 -0.373735
2009-04-09 08:05:03 51°15.75 2°48.375 -999 1.855299 13.462107 -0.373735
2009-04-09 08:05:08 51°15.751 2°48.347 -999 1.855196 13.461291 -0.373735
2009-04-09 08:05:13 51°15.753 2°48.318 -999 1.855609 13.464829 -0.373735
2009-04-09 08:05:18 51°15.754 2°48.29 -999 1.855093 13.46075 -0.373735
2009-04-09 08:05:22 51°15.755 2°48.267 -999 1.855093 13.46075 -0.373735
2009-04-09 08:05:28 51°15.756 2°48.233 -999 1.85499 13.459934 -0.408559
2009-04-09 08:05:32 51°15.758 2°48.21 -999 1.85499 13.459934 -0.373735
2009-04-09 08:05:38 51°15.759 2°48.176 -999 1.855093 13.461024 -0.373735
2009-04-09 08:05:42 51°15.76 2°48.153 -999 1.855403 13.463745 -0.373735
2009-04-09 08:05:48 51°15.762 2°48.119 -999 1.85468 13.458035 -0.373735
2009-04-09 08:05:53 51°15.763 2°48.091 -999 1.85468 13.458035 -0.373735
2009-04-09 08:05:58 51°15.764 2°48.062 -999 1.85468 13.458035 -0.373735
2009-04-09 08:06:02 51°15.765 2°48.039 -999 1.85499 13.460756 -0.373735
2009-04-09 08:06:08 51°15.766 2°48.005 -999 1.85468 13.458309 -0.373735
2009-04-09 08:06:13 51°15.768 2°47.976 -999 1.854577 13.457493 -0.373735
2009-04-09 08:06:18 51°15.769 2°47.947 -999 1.85499 13.460756 -0.373735
2009-04-09 08:06:22 51°15.77 2°47.924 -999 1.85499 13.460756 -0.373735
2009-04-09 08:06:28 51°15.771 2°47.89 -999 1.855403 13.464019 -0.373735
2009-04-09 08:06:33 51°15.773 2°47.861 -999 1.85499 13.46103 -0.373735
2009-04-09 08:06:38 51°15.774 2°47.833 -999 1.85499 13.46103 -0.373735
2009-04-09 08:06:42 51°15.775 2°47.81 -999 1.85437 13.456135 -0.373735
2009-04-09 08:06:48 51°15.777 2°47.775 -999 1.854783 13.459672 -0.373735
2009-04-09 08:06:53 51°15.778 2°47.747 -999 1.854783 13.459672 -0.373735
2009-04-09 08:06:58 51°15.779 2°47.718 -999 1.85499 13.461304 -0.373735
2009-04-09 08:07:03 51°15.78 2°47.689 -999 1.854577 13.458315 -0.373735
2009-04-09 08:07:08 51°15.782 2°47.661 -999 1.85499 13.461852 -0.373735
2009-04-09 08:07:13 51°15.783 2°47.632 -999 1.855093 13.462668 -0.373735
2009-04-09 08:07:18 51°15.785 2°47.603 -999 1.854577 13.458863 -0.373735
2009-04-09 08:07:22 51°15.786 2°47.58 -999 1.854577 13.458863 -0.373735
2009-04-09 08:07:28 51°15.787 2°47.546 -999 1.855403 13.465664 -0.373735
2009-04-09 08:07:33 51°15.789 2°47.517 -999 1.854783 13.461043 -0.373735
2009-04-09 08:07:38 51°15.789 2°47.489 -999 1.854164 13.455873 -0.373735
2009-04-09 08:07:42 51°15.79 2°47.466 -999 1.854577 13.459137 -0.373735
2009-04-09 08:07:48 51°15.791 2°47.431 -999 1.85437 13.457505 -0.373735
2009-04-09 08:07:53 51°15.792 2°47.402 -999 1.85437 13.457505 -0.373735
2009-04-09 08:07:58 51°15.793 2°47.373 -999 1.854164 13.455873 -0.373735
2009-04-09 08:08:03 51°15.793 2°47.345 -999 1.854577 13.459411 -0.373735
2009-04-09 08:08:08 51°15.794 2°47.316 -999 1.85406 13.455331 -0.373735
2009-04-09 08:08:13 51°15.795 2°47.287 -999 1.854783 13.461043 -0.373735
2009-04-09 08:08:18 51°15.796 2°47.258 -999 1.854267 13.457511 -0.373735
2009-04-09 08:08:23 51°15.797 2°47.229 -999 1.854267 13.457511 -0.373735
2009-04-09 08:08:28 51°15.798 2°47.201 -999 1.854577 13.459959 -0.373735
2009-04-09 08:08:33 51°15.798 2°47.172 -999 1.85437 13.458327 -0.373735
2009-04-09 08:08:38 51°15.8 2°47.143 -999 1.854164 13.456695 -0.373735
2009-04-09 08:08:43 51°15.801 2°47.115 -999 1.854267 13.457511 -0.373735
2009-04-09 08:08:47 51°15.802 2°47.092 -999 1.854473 13.459417 -0.373735
2009-04-09 08:08:53 51°15.803 2°47.057 -999 1.854473 13.459417 -0.373735
2009-04-09 08:08:58 51°15.804 2°47.029 -999 1.85406 13.456153 -0.373735
2009-04-09 08:09:03 51°15.806 2°47 -999 1.853957 13.455063 -0.408559
2009-04-09 08:09:07 51°15.807 2°46.977 -999 1.854577 13.460233 -0.373735
2009-04-09 08:09:14 51°15.809 2°46.937 -999 1.85468 13.461323 -0.373735
2009-04-09 08:09:18 51°15.811 2°46.914 -999 1.853957 13.455885 -0.373735
2009-04-09 08:09:23 51°15.813 2°46.886 -999 1.853957 13.455885 -0.373735
2009-04-09 08:09:28 51°15.814 2°46.857 -999 1.854164 13.457517 -0.373735
2009-04-09 08:09:34 51°15.816 2°46.823 -999 1.854164 13.457517 -0.373735
2009-04-09 08:09:38 51°15.817 2°46.8 -999 1.853751 13.454527 -0.408559
2009-04-09 08:09:43 51°15.818 2°46.772 -999 1.853647 13.453711 -0.373735
2009-04-09 08:09:48 51°15.82 2°46.743 -999 1.854473 13.460239 -0.373735
2009-04-09 08:09:53 51°15.821 2°46.715 -999 1.854473 13.460239 -0.373735
2009-04-09 08:09:58 51°15.823 2°46.687 -999 1.853957 13.456433 -0.373735
2009-04-09 08:10:02 51°15.824 2°46.664 -999 1.854267 13.458881 -0.373735
2009-04-09 08:10:08 51°15.826 2°46.63 -999 1.85468 13.462694 -0.373735
2009-04-09 08:10:12 51°15.828 2°46.607 -999 1.854164 13.458614 -0.373735
2009-04-09 08:10:18 51°15.83 2°46.573 -999 1.853854 13.456165 -0.373735
2009-04-09 08:10:22 51°15.831 2°46.55 -999 1.853854 13.456165 -0.373735
2009-04-09 08:10:28 51°15.834 2°46.516 -999 1.85437 13.460246 -0.373735
2009-04-09 08:10:33 51°15.835 2°46.488 -999 1.85406 13.457797 -0.373735
2009-04-09 08:10:38 51°15.837 2°46.46 -999 1.853957 13.456981 -0.373735
2009-04-09 08:10:42 51°15.838 2°46.437 -999 1.854577 13.462152 -0.373735
2009-04-09 08:10:48 51°15.841 2°46.403 -999 1.853957 13.457256 -0.408559
2009-04-09 08:10:53 51°15.842 2°46.374 -999 1.853957 13.457256 -0.408559
2009-04-09 08:10:58 51°15.844 2°46.346 -999 1.854473 13.461884 -0.373735
2009-04-09 08:11:02 51°15.845 2°46.323 -999 1.85406 13.45862 -0.373735
2009-04-09 08:11:08 51°15.847 2°46.289 -999 1.854267 13.460526 -0.373735
2009-04-09 08:11:13 51°15.849 2°46.261 -999 1.854164 13.45971 -0.373735
2009-04-09 08:11:18 51°15.85 2°46.232 -999 1.853854 13.457262 -0.373735
2009-04-09 08:11:22 51°15.851 2°46.21 -999 1.853854 13.457262 -0.373735
2009-04-09 08:11:28 51°15.853 2°46.176 -999 1.853751 13.456446 -0.373735
2009-04-09 08:11:33 51°15.855 2°46.147 -999 1.854267 13.4608 -0.373735
2009-04-09 08:11:38 51°15.856 2°46.119 -999 1.854267 13.4608 -0.373735
2009-04-09 08:11:43 51°15.858 2°46.091 -999 1.853854 13.457536 -0.373735
2009-04-09 08:11:48 51°15.86 2°46.063 -999 1.85437 13.461891 -0.373735
2009-04-09 08:11:53 51°15.862 2°46.035 -999 1.85437 13.461891 -0.373735
2009-04-09 08:11:58 51°15.863 2°46.007 -999 1.853957 13.458626 -0.373735
2009-04-09 08:12:02 51°15.865 2°45.984 -999 1.854164 13.460532 -0.373735
2009-04-09 08:12:08 51°15.866 2°45.951 -999 1.854164 13.460532 -0.373735
2009-04-09 08:12:13 51°15.868 2°45.923 -999 1.854267 13.461349 -0.373735
2009-04-09 08:12:18 51°15.87 2°45.894 -999 1.854164 13.460807 -0.373735
2009-04-09 08:12:23 51°15.871 2°45.867 -999 1.854164 13.460807 -0.373735
2009-04-09 08:12:28 51°15.873 2°45.839 -999 1.853957 13.459174 -0.373735
2009-04-09 08:12:33 51°15.874 2°45.811 -999 1.854164 13.460807 -0.373735
2009-04-09 08:12:38 51°15.876 2°45.783 -999 1.85406 13.460265 -0.373735
2009-04-09 08:12:43 51°15.878 2°45.755 -999 1.853957 13.459448 -0.373735
2009-04-09 08:12:48 51°15.879 2°45.727 -999 1.85406 13.460539 -0.373735
2009-04-09 08:12:53 51°15.881 2°45.699 -999 1.85406 13.460539 -0.373735
2009-04-09 08:12:58 51°15.883 2°45.671 -999 1.853957 13.459997 -0.373735
2009-04-09 08:13:03 51°15.884 2°45.643 -999 1.853957 13.459997 -0.373735
2009-04-09 08:13:08 51°15.886 2°45.615 -999 1.853647 13.457548 -0.373735
2009-04-09 08:13:13 51°15.887 2°45.588 -999 1.853854 13.459455 -0.373735
2009-04-09 08:13:18 51°15.889 2°45.56 -999 1.854164 13.461904 -0.373735
2009-04-09 08:13:23 51°15.89 2°45.532 -999 1.854164 13.461904 -0.373735
2009-04-09 08:13:27 51°15.891 2°45.51 -999 1.85406 13.461362 -0.373735
2009-04-09 08:13:33 51°15.893 2°45.477 -999 1.854164 13.462178 -0.408559
2009-04-09 08:13:38 51°15.894 2°45.449 -999 1.853751 13.458913 -0.373735
2009-04-09 08:13:43 51°15.895 2°45.421 -999 1.85406 13.461636 -0.373735
2009-04-09 08:13:47 51°15.896 2°45.399 -999 1.853338 13.455922 -0.373735
2009-04-09 08:13:54 51°15.898 2°45.36 -999 1.853338 13.455922 -0.373735
2009-04-09 08:13:58 51°15.899 2°45.338 -999 1.854267 13.463543 -0.373735
2009-04-09 08:14:03 51°15.9 2°45.31 -999 1.853854 13.460552 -0.373735
2009-04-09 08:14:08 51°15.902 2°45.283 -999 1.85437 13.464633 -0.373735
2009-04-09 08:14:14 51°15.903 2°45.249 -999 1.853028 13.454022 -0.373735
2009-04-09 08:14:18 51°15.904 2°45.227 -999 1.854267 13.464091 -0.408559
2009-04-09 08:14:22 51°15.905 2°45.205 -999 1.854267 13.464091 -0.408559
2009-04-09 08:14:28 51°15.906 2°45.172 -999 1.85406 13.462459 -0.373735
2009-04-09 08:14:33 51°15.906 2°45.144 -999 1.853957 13.461642 -0.373735
2009-04-09 08:14:38 51°15.906 2°45.116 -999 1.853544 13.458377 -0.373735
2009-04-09 08:14:42 51°15.907 2°45.094 -999 1.853854 13.460826 -0.373735
2009-04-09 08:14:48 51°15.908 2°45.06 -999 1.853751 13.46001 -0.373735
2009-04-09 08:14:52 51°15.908 2°45.038 -999 1.853751 13.46001 -0.373735
2009-04-09 08:14:58 51°15.91 2°45.005 -999 1.854164 13.463549 -0.373735
2009-04-09 08:15:02 51°15.911 2°44.983 -999 1.85406 13.462733 -0.373735
2009-04-09 08:15:08 51°15.912 2°44.949 -999 1.854164 13.463823 -0.373735
2009-04-09 08:15:13 51°15.913 2°44.922 -999 1.853957 13.462191 -0.373735
2009-04-09 08:15:18 51°15.914 2°44.894 -999 1.853544 13.458925 -0.408559
2009-04-09 08:15:22 51°15.915 2°44.872 -999 1.853544 13.458925 -0.408559
2009-04-09 08:15:28 51°15.916 2°44.838 -999 1.854473 13.466547 -0.373735
2009-04-09 08:15:33 51°15.917 2°44.811 -999 1.853751 13.461107 -0.373735
2009-04-09 08:15:38 51°15.918 2°44.783 -999 1.854164 13.464372 -0.373735
2009-04-09 08:15:42 51°15.919 2°44.76 -999 1.853751 13.460832 -0.373735
2009-04-09 08:15:48 51°15.92 2°44.727 -999 1.853854 13.461923 -0.373735
2009-04-09 08:15:53 51°15.921 2°44.699 -999 1.853854 13.461923 -0.373735
2009-04-09 08:15:58 51°15.922 2°44.671 -999 1.853751 13.461107 -0.373735
2009-04-09 08:16:02 51°15.923 2°44.649 -999 1.854164 13.464647 -0.373735
2009-04-09 08:16:08 51°15.924 2°44.615 -999 1.853854 13.462746 -0.373735
2009-04-09 08:16:13 51°15.925 2°44.587 -999 1.850963 13.439341 -0.373735
2009-04-09 08:16:18 51°15.927 2°44.56 -999 1.852512 13.450762 -0.373735
2009-04-09 08:16:23 51°15.929 2°44.532 -999 1.852512 13.450762 -0.373735
2009-04-09 08:16:28 51°15.933 2°44.506 -999 1.857571 13.491866 -0.373735
2009-04-09 08:16:33 51°15.939 2°44.481 -999 1.854783 13.470094 -0.373735
2009-04-09 08:16:38 51°15.943 2°44.455 -999 1.856332 13.482616 -0.373735
2009-04-09 08:16:43 51°15.95 2°44.431 -999 1.853235 13.457848 -0.373735
2009-04-09 08:16:48 51°15.956 2°44.406 -999 1.857881 13.49514 -0.373735
2009-04-09 08:16:53 51°15.963 2°44.382 -999 1.857881 13.49514 -0.373735
2009-04-09 08:16:58 51°15.972 2°44.36 -999 1.855506 13.476633 -0.373735
2009-04-09 08:17:03 51°15.98 2°44.337 -999 1.856642 13.486165 -0.373735
2009-04-09 08:17:07 51°15.988 2°44.32 -999 1.856125 13.482632 -0.373735
2009-04-09 08:17:13 51°15.999 2°44.294 -999 1.857364 13.492707 -0.373735
2009-04-09 08:17:18 51°16.009 2°44.273 -999 1.857055 13.490532 -0.373735
2009-04-09 08:17:23 51°16.019 2°44.253 -999 1.857055 13.490532 -0.373735
2009-04-09 08:17:27 51°16.027 2°44.236 -999 1.855196 13.475557 -0.373735
2009-04-09 08:17:33 51°16.039 2°44.212 -999 1.857364 13.492707 -0.373735
2009-04-09 08:17:38 51°16.05 2°44.193 -999 1.855609 13.478549 -0.373735
2009-04-09 08:17:43 51°16.061 2°44.175 -999 1.856642 13.48699 -0.408559
2009-04-09 08:17:48 51°16.072 2°44.156 -999 1.856435 13.485357 -0.373735
2009-04-09 08:17:53 51°16.084 2°44.139 -999 1.856435 13.485357 -0.373735
2009-04-09 08:17:58 51°16.096 2°44.121 -999 1.856951 13.48944 -0.373735
2009-04-09 08:18:03 51°16.108 2°44.104 -999 1.856332 13.48454 -0.373735
2009-04-09 08:18:08 51°16.119 2°44.087 -999 1.857055 13.490257 -0.373735
2009-04-09 08:18:14 51°16.134 2°44.067 -999 1.857261 13.492165 -0.373735
2009-04-09 08:18:18 51°16.143 2°44.053 -999 1.856745 13.488081 -0.373735
2009-04-09 08:18:22 51°16.153 2°44.04 -999 1.856745 13.488081 -0.373735
2009-04-09 08:18:28 51°16.168 2°44.02 -999 1.856951 13.489715 -0.373735
2009-04-09 08:18:34 51°16.182 2°44 -999 1.856538 13.486723 -0.373735
2009-04-09 08:18:38 51°16.192 2°43.986 -999 1.857364 13.493532 -0.373735
2009-04-09 08:18:42 51°16.201 2°43.973 -999 1.856951 13.490265 -0.373735
2009-04-09 08:18:48 51°16.216 2°43.953 -999 1.856538 13.486998 -0.373735
2009-04-09 08:18:53 51°16.228 2°43.936 -999 1.856538 13.486998 -0.373735
2009-04-09 08:18:58 51°16.24 2°43.919 -999 1.856229 13.484548 -0.373735
2009-04-09 08:19:02 51°16.25 2°43.905 -999 1.856332 13.485364 -0.373735
2009-04-09 08:19:08 51°16.265 2°43.885 -999 1.856538 13.486998 -0.373735
2009-04-09 08:19:13 51°16.277 2°43.868 -999 1.856745 13.488906 -0.373735
2009-04-09 08:19:18 51°16.289 2°43.851 -999 1.856951 13.490815 -0.373735
2009-04-09 08:19:22 51°16.299 2°43.837 -999 1.856951 13.490815 -0.373735
2009-04-09 08:19:28 51°16.313 2°43.817 -999 1.856229 13.485097 -0.373735
2009-04-09 08:19:33 51°16.325 2°43.8 -999 1.856126 13.484281 -0.373735
2009-04-09 08:19:38 51°16.337 2°43.782 -999 1.856539 13.487823 -0.373735
2009-04-09 08:19:42 51°16.347 2°43.769 -999 1.856745 13.489731 -0.373735
2009-04-09 08:19:48 51°16.362 2°43.749 -999 1.856126 13.484556 -0.373735
2009-04-09 08:19:53 51°16.375 2°43.733 -999 1.856126 13.484556 -0.373735
2009-04-09 08:19:58 51°16.387 2°43.716 -999 1.856952 13.49164 -0.373735
2009-04-09 08:20:03 51°16.399 2°43.7 -999 1.856539 13.488098 -0.408559
2009-04-09 08:20:08 51°16.411 2°43.682 -999 1.856642 13.488914 -0.408559
2009-04-09 08:20:13 51°16.424 2°43.666 -999 1.856126 13.484556 -0.373735
2009-04-09 08:20:18 51°16.436 2°43.649 -999 1.856539 13.488098 -0.373735
2009-04-09 08:20:23 51°16.448 2°43.632 -999 1.856539 13.488098 -0.373735
2009-04-09 08:20:28 51°16.46 2°43.615 -999 1.856332 13.486739 -0.373735
2009-04-09 08:20:33 51°16.473 2°43.598 -999 1.856229 13.485922 -0.373735
2009-04-09 08:20:38 51°16.485 2°43.582 -999 1.856332 13.487014 -0.373735
2009-04-09 08:20:43 51°16.497 2°43.565 -999 1.856539 13.488923 -0.408559
2009-04-09 08:20:48 51°16.51 2°43.548 -999 1.856539 13.488923 -0.373735
2009-04-09 08:20:54 51°16.524 2°43.528 -999 1.856539 13.488923 -0.373735
2009-04-09 08:20:58 51°16.534 2°43.514 -999 1.857055 13.493282 -0.373735
2009-04-09 08:21:03 51°16.547 2°43.498 -999 1.856539 13.489198 -0.408559
2009-04-09 08:21:07 51°16.556 2°43.484 -999 1.858087 13.501726 -0.373735
2009-04-09 08:21:14 51°16.574 2°43.46 -999 1.855919 13.484296 -0.373735
2009-04-09 08:21:18 51°16.583 2°43.446 -999 1.857365 13.496008 -0.373735
2009-04-09 08:21:23 51°16.595 2°43.428 -999 1.857365 13.496008 -0.373735
2009-04-09 08:21:27 51°16.604 2°43.414 -999 1.855919 13.484296 -0.373735
2009-04-09 08:21:33 51°16.618 2°43.391 -999 1.856126 13.48538 -0.373735
2009-04-09 08:21:38 51°16.63 2°43.373 -999 1.857055 13.493007 -0.373735
2009-04-09 08:21:43 51°16.641 2°43.354 -999 1.856642 13.490014 -0.373735
2009-04-09 08:21:48 51°16.653 2°43.337 -999 1.857365 13.496008 -0.373735
2009-04-09 08:21:53 51°16.665 2°43.318 -999 1.857365 13.496008 -0.373735
2009-04-09 08:21:58 51°16.677 2°43.3 -999 1.856952 13.493015 -0.373735
2009-04-09 08:22:03 51°16.689 2°43.282 -999 1.856539 13.489748 -0.373735
2009-04-09 08:22:08 51°16.701 2°43.263 -999 1.856229 13.487022 -0.373735
2009-04-09 08:22:14 51°16.715 2°43.241 -999 1.855713 13.482938 -0.373735
2009-04-09 08:22:18 51°16.724 2°43.227 -999 1.856539 13.489473 -0.373735
2009-04-09 08:22:22 51°16.734 2°43.212 -999 1.856539 13.489473 -0.373735
2009-04-09 08:22:28 51°16.748 2°43.19 -999 1.856745 13.490831 -0.373735
2009-04-09 08:22:34 51°16.762 2°43.168 -999 1.857158 13.494374 -0.373735
2009-04-09 08:22:38 51°16.771 2°43.152 -999 1.858913 13.509089 -0.373735
2009-04-09 08:22:42 51°16.781 2°43.137 -999 1.85881 13.508547 -0.373735
2009-04-09 08:22:48 51°16.793 2°43.112 -999 1.857468 13.49765 -0.373735
2009-04-09 08:22:53 51°16.805 2°43.093 -999 1.857468 13.49765 -0.373735
2009-04-09 08:22:58 51°16.815 2°43.072 -999 1.857674 13.49956 -0.373735
2009-04-09 08:23:02 51°16.824 2°43.055 -999 1.857365 13.497108 -0.373735
2009-04-09 08:23:08 51°16.836 2°43.029 -999 1.856332 13.488939 -0.373735
2009-04-09 08:23:13 51°16.846 2°43.008 -999 1.856848 13.492748 -0.373735
2009-04-09 08:23:18 51°16.855 2°42.985 -999 1.856642 13.491115 -0.373735
2009-04-09 08:23:22 51°16.863 2°42.967 -999 1.856642 13.491115 -0.373735
2009-04-09 08:23:28 51°16.874 2°42.94 -999 1.856229 13.487572 -0.373735
2009-04-09 08:23:33 51°16.884 2°42.917 -999 1.856848 13.492473 -0.408559
2009-04-09 08:23:38 51°16.894 2°42.895 -999 1.857158 13.494924 -0.373735
2009-04-09 08:23:42 51°16.901 2°42.876 -999 1.856642 13.49139 -0.373735
2009-04-09 08:23:48 51°16.912 2°42.849 -999 1.856848 13.493024 -0.373735
2009-04-09 08:23:53 51°16.921 2°42.825 -999 1.856848 13.493024 -0.373735
2009-04-09 08:23:58 51°16.93 2°42.802 -999 1.856642 13.491665 -0.373735
2009-04-09 08:24:03 51°16.938 2°42.779 -999 1.856745 13.492482 -0.373735
2009-04-09 08:24:08 51°16.947 2°42.756 -999 1.856745 13.492482 -0.408559
2009-04-09 08:24:13 51°16.956 2°42.732 -999 1.857984 13.502837 -0.373735
2009-04-09 08:24:18 51°16.965 2°42.708 -999 1.856642 13.49194 -0.373735
2009-04-09 08:24:23 51°16.973 2°42.683 -999 1.856642 13.49194 -0.373735
2009-04-09 08:24:28 51°16.981 2°42.659 -999 1.856745 13.492482 -0.373735
2009-04-09 08:24:33 51°16.989 2°42.634 -999 1.856435 13.490031 -0.373735
2009-04-09 08:24:38 51°16.997 2°42.609 -999 1.856642 13.491665 -0.373735
2009-04-09 08:24:43 51°17.004 2°42.585 -999 1.856848 13.493574 -0.408559
2009-04-09 08:24:48 51°17.011 2°42.559 -999 1.856952 13.494666 -0.373735
2009-04-09 08:24:53 51°17.019 2°42.535 -999 1.856952 13.494666 -0.373735
2009-04-09 08:24:58 51°17.027 2°42.509 -999 1.856539 13.491673 -0.373735
2009-04-09 08:25:03 51°17.034 2°42.484 -999 1.856745 13.493307 -0.373735
2009-04-09 08:25:07 51°17.04 2°42.464 -999 1.857158 13.496575 -0.373735
2009-04-09 08:25:14 51°17.051 2°42.428 -999 1.856539 13.491673 -0.408559
2009-04-09 08:25:18 51°17.057 2°42.407 -999 1.856539 13.491398 -0.373735
2009-04-09 08:25:23 51°17.064 2°42.382 -999 1.856539 13.491398 -0.373735
2009-04-09 08:25:28 51°17.072 2°42.356 -999 1.856848 13.493849 -0.373735
2009-04-09 08:25:34 51°17.081 2°42.326 -999 1.857881 13.50257 -0.373735
2009-04-09 08:25:38 51°17.087 2°42.305 -999 1.856539 13.491948 -0.373735
2009-04-09 08:25:43 51°17.093 2°42.278 -999 1.856022 13.488138 -0.408559
2009-04-09 08:25:48 51°17.1 2°42.252 -999 1.855506 13.483778 -0.408559
2009-04-09 08:25:54 51°17.106 2°42.218 -999 1.855506 13.483778 -0.408559
2009-04-09 08:25:58 51°17.11 2°42.197 -999 1.855403 13.482686 -0.373735
2009-04-09 08:26:02 51°17.115 2°42.175 -999 1.856229 13.489497 -0.373735
2009-04-09 08:26:08 51°17.12 2°42.142 -999 1.855196 13.481327 -0.408559
2009-04-09 08:26:13 51°17.125 2°42.115 -999 1.855816 13.486504 -0.373735
2009-04-09 08:26:18 51°17.129 2°42.087 -999 1.854887 13.479151 -0.408559
2009-04-09 08:26:22 51°17.133 2°42.065 -999 1.854887 13.479151 -0.408559
2009-04-09 08:26:28 51°17.137 2°42.031 -999 1.855609 13.485145 -0.408559
2009-04-09 08:26:33 51°17.14 2°42.003 -999 1.854474 13.475883 -0.373735
2009-04-09 08:26:38 51°17.144 2°41.974 -999 1.855196 13.481602 -0.408559
2009-04-09 08:26:42 51°17.147 2°41.951 -999 1.854783 13.478334 -0.373735
2009-04-09 08:26:48 51°17.151 2°41.917 -999 1.853957 13.471799 -0.373735
2009-04-09 08:26:53 51°17.154 2°41.889 -999 1.853957 13.471799 -0.373735
2009-04-09 08:26:58 51°17.157 2°41.861 -999 1.85468 13.477242 -0.373735
2009-04-09 08:27:02 51°17.159 2°41.838 -999 1.85437 13.475066 -0.373735
2009-04-09 08:27:08 51°17.163 2°41.803 -999 1.855816 13.486779 -0.408559
2009-04-09 08:27:13 51°17.166 2°41.775 -999 1.853957 13.472073 -0.373735
2009-04-09 08:27:18 51°17.169 2°41.746 -999 1.854577 13.47725 -0.373735
2009-04-09 08:27:22 51°17.17 2°41.723 -999 1.854577 13.47725 -0.373735
2009-04-09 08:27:28 51°17.173 2°41.688 -999 1.853854 13.471806 -0.408559
2009-04-09 08:27:33 51°17.175 2°41.659 -999 1.855713 13.487062 -0.373735
2009-04-09 08:27:38 51°17.177 2°41.63 -999 1.853854 13.472081 -0.373735
2009-04-09 08:27:42 51°17.178 2°41.606 -999 1.854577 13.4778 -0.373735
2009-04-09 08:27:48 51°17.18 2°41.571 -999 1.85468 13.478617 -0.373735
2009-04-09 08:27:53 51°17.181 2°41.542 -999 1.85468 13.478617 -0.373735
2009-04-09 08:27:58 51°17.182 2°41.512 -999 1.854164 13.474257 -0.373735
2009-04-09 08:28:03 51°17.184 2°41.483 -999 1.854164 13.474257 -0.408559
2009-04-09 08:28:08 51°17.185 2°41.453 -999 1.854267 13.475074 -0.373735
2009-04-09 08:28:13 51°17.187 2°41.424 -999 1.854474 13.477257 -0.408559
2009-04-09 08:28:18 51°17.188 2°41.394 -999 1.85437 13.476715 -0.408559
2009-04-09 08:28:23 51°17.19 2°41.365 -999 1.85437 13.476715 -0.408559
2009-04-09 08:28:28 51°17.191 2°41.336 -999 1.853957 13.473447 -0.373735
2009-04-09 08:28:33 51°17.192 2°41.306 -999 1.85468 13.479441 -0.373735
2009-04-09 08:28:38 51°17.194 2°41.276 -999 1.854267 13.476448 -0.408559
2009-04-09 08:28:43 51°17.195 2°41.247 -999 1.85437 13.477265 -0.408559
2009-04-09 08:28:48 51°17.197 2°41.217 -999 1.854474 13.478357 -0.408559
2009-04-09 08:28:53 51°17.198 2°41.188 -999 1.854474 13.478357 -0.408559
2009-04-09 08:28:58 51°17.2 2°41.158 -999 1.853751 13.472363 -0.373735
2009-04-09 08:29:03 51°17.201 2°41.128 -999 1.854164 13.475631 -0.408559
2009-04-09 08:29:07 51°17.202 2°41.105 -999 1.853751 13.472363 -0.408559
2009-04-09 08:29:13 51°17.204 2°41.069 -999 1.853854 13.473454 -0.373735
2009-04-09 08:29:18 51°17.206 2°41.04 -999 1.854164 13.476181 -0.373735
2009-04-09 08:29:23 51°17.207 2°41.01 -999 1.854164 13.476181 -0.373735
2009-04-09 08:29:28 51°17.209 2°40.98 -999 1.853854 13.473729 -0.373735
2009-04-09 08:29:34 51°17.211 2°40.945 -999 1.853957 13.474821 -0.373735
2009-04-09 08:29:38 51°17.212 2°40.921 -999 1.854164 13.477005 -0.408559
2009-04-09 08:29:43 51°17.213 2°40.891 -999 1.854267 13.478097 -0.408559
2009-04-09 08:29:48 51°17.215 2°40.862 -999 1.853544 13.472377 -0.373735
2009-04-09 08:29:54 51°17.216 2°40.826 -999 1.853544 13.472377 -0.373735
2009-04-09 08:29:58 51°17.217 2°40.802 -999 1.853648 13.473194 -0.408559
2009-04-09 08:30:02 51°17.218 2°40.778 -999 1.853957 13.475646 -0.373735
2009-04-09 08:30:08 51°17.219 2°40.743 -999 1.85437 13.478915 -0.373735
2009-04-09 08:30:14 51°17.221 2°40.707 -999 1.853338 13.470743 -0.408559
2009-04-09 08:30:18 51°17.221 2°40.683 -999 1.853854 13.474554 -0.373735
2009-04-09 08:30:22 51°17.223 2°40.659 -999 1.853854 13.474554 -0.373735
2009-04-09 08:30:28 51°17.225 2°40.624 -999 1.853957 13.475646 -0.408559
2009-04-09 08:30:33 51°17.226 2°40.594 -999 1.853957 13.475646 -0.408559
2009-04-09 08:30:38 51°17.228 2°40.564 -999 1.853544 13.472652 -0.408559
2009-04-09 08:30:42 51°17.229 2°40.54 -999 1.853751 13.474561 -0.373735
2009-04-09 08:30:48 51°17.231 2°40.504 -999 1.853854 13.475653 -0.373735
2009-04-09 08:30:53 51°17.232 2°40.475 -999 1.853854 13.475653 -0.373735
2009-04-09 08:30:58 51°17.234 2°40.445 -999 1.853751 13.474836 -0.373735
2009-04-09 08:31:02 51°17.235 2°40.421 -999 1.853957 13.476746 -0.408559
2009-04-09 08:31:08 51°17.237 2°40.385 -999 1.853545 13.473477 -0.408559
2009-04-09 08:31:13 51°17.238 2°40.355 -999 1.853648 13.474019 -0.373735
2009-04-09 08:31:18 51°17.24 2°40.326 -999 1.853545 13.473202 -0.408559
2009-04-09 08:31:22 51°17.241 2°40.302 -999 1.853545 13.473202 -0.408559
2009-04-09 08:31:28 51°17.243 2°40.266 -999 1.853648 13.474294 -0.408559
2009-04-09 08:31:33 51°17.244 2°40.236 -999 1.853441 13.472934 -0.408559
2009-04-09 08:31:38 51°17.246 2°40.207 -999 1.853958 13.477295 -0.408559
2009-04-09 08:31:43 51°17.248 2°40.177 -999 1.853854 13.476478 -0.373735
2009-04-09 08:31:48 51°17.25 2°40.147 -999 1.853235 13.47185 -0.373735
2009-04-09 08:31:53 51°17.251 2°40.117 -999 1.853235 13.47185 -0.373735
2009-04-09 08:31:58 51°17.253 2°40.088 -999 1.854061 13.478663 -0.373735
2009-04-09 08:32:03 51°17.255 2°40.058 -999 1.853441 13.474034 -0.373735
2009-04-09 08:32:08 51°17.256 2°40.028 -999 1.853545 13.475401 -0.373735
2009-04-09 08:32:14 51°17.258 2°39.993 -999 1.853338 13.473492 -0.408559
2009-04-09 08:32:18 51°17.259 2°39.969 -999 1.853854 13.477578 -0.373735
2009-04-09 08:32:23 51°17.261 2°39.939 -999 1.853854 13.477578 -0.373735
2009-04-09 08:32:28 51°17.263 2°39.909 -999 1.854474 13.482482 -0.373735
2009-04-09 08:32:34 51°17.265 2°39.874 -999 1.853545 13.475126 -0.373735
2009-04-09 08:32:38 51°17.266 2°39.85 -999 1.853648 13.475943 -0.373735
2009-04-09 08:32:43 51°17.268 2°39.821 -999 1.854061 13.479488 -0.373735
2009-04-09 08:32:47 51°17.27 2°39.797 -999 1.853751 13.477036 -0.373735
2009-04-09 08:32:53 51°17.272 2°39.761 -999 1.853751 13.477036 -0.373735
2009-04-09 08:32:58 51°17.273 2°39.732 -999 1.853545 13.475676 -0.373735
2009-04-09 08:33:03 51°17.275 2°39.702 -999 1.853545 13.475676 -0.408559
2009-04-09 08:33:07 51°17.276 2°39.678 -999 1.853751 13.477586 -0.408559
2009-04-09 08:33:13 51°17.278 2°39.642 -999 1.853751 13.477861 -0.373735
2009-04-09 08:33:18 51°17.28 2°39.613 -999 1.853132 13.472957 -0.373735
2009-04-09 08:33:23 51°17.282 2°39.583 -999 1.853132 13.472957 -0.373735
2009-04-09 08:33:28 51°17.284 2°39.554 -999 1.854164 13.481406 -0.373735
2009-04-09 08:33:34 51°17.286 2°39.519 -999 1.853132 13.472957 -0.408559
2009-04-09 08:33:38 51°17.287 2°39.495 -999 1.853854 13.478953 -0.408559
2009-04-09 08:33:43 51°17.288 2°39.466 -999 1.853235 13.473774 -0.408559
2009-04-09 08:33:48 51°17.289 2°39.436 -999 1.853958 13.479496 -0.373735
2009-04-09 08:33:53 51°17.291 2°39.407 -999 1.853958 13.479496 -0.373735
2009-04-09 08:33:58 51°17.292 2°39.378 -999 1.853235 13.474049 -0.408559
2009-04-09 08:34:03 51°17.293 2°39.349 -999 1.854061 13.480863 -0.408559
2009-04-09 08:34:07 51°17.294 2°39.325 -999 1.853338 13.475141 -0.408559
2009-04-09 08:34:14 51°17.296 2°39.284 -999 1.853751 13.478686 -0.373735
2009-04-09 08:34:18 51°17.297 2°39.261 -999 1.853235 13.474874 -0.373735
2009-04-09 08:34:23 51°17.298 2°39.232 -999 1.853235 13.474874 -0.373735
2009-04-09 08:34:28 51°17.3 2°39.202 -999 1.853958 13.480871 -0.408559
2009-04-09 08:34:34 51°17.301 2°39.167 -999 1.853648 13.478419 -0.408559
2009-04-09 08:34:38 51°17.303 2°39.143 -999 1.853235 13.475149 -0.408559
2009-04-09 08:34:43 51°17.304 2°39.114 -999 1.852925 13.472422 -0.408559
2009-04-09 08:34:48 51°17.306 2°39.084 -999 1.853235 13.475149 -0.373735
2009-04-09 08:34:54 51°17.308 2°39.049 -999 1.853235 13.475149 -0.373735
2009-04-09 08:34:58 51°17.309 2°39.025 -999 1.853132 13.474606 -0.408559
2009-04-09 08:35:02 51°17.31 2°39.001 -999 1.853648 13.478969 -0.408559
2009-04-09 08:35:08 51°17.312 2°38.966 -999 1.853132 13.475157 -0.373735
2009-04-09 08:35:13 51°17.313 2°38.936 -999 1.853132 13.475157 -0.408559
2009-04-09 08:35:18 51°17.315 2°38.906 -999 1.853132 13.474881 -0.373735
2009-04-09 08:35:22 51°17.316 2°38.882 -999 1.853132 13.474881 -0.373735
2009-04-09 08:35:28 51°17.318 2°38.847 -999 1.853132 13.474881 -0.373735
2009-04-09 08:35:33 51°17.32 2°38.817 -999 1.853441 13.477059 -0.408559
2009-04-09 08:35:38 51°17.322 2°38.787 -999 1.853441 13.477334 -0.373735
2009-04-09 08:35:42 51°17.323 2°38.763 -999 1.853648 13.478969 -0.408559
2009-04-09 08:35:48 51°17.325 2°38.728 -999 1.853028 13.474339 -0.408559
2009-04-09 08:35:53 51°17.327 2°38.698 -999 1.853028 13.474339 -0.408559
2009-04-09 08:35:58 51°17.329 2°38.668 -999 1.853648 13.479519 -0.408559
2009-04-09 08:36:02 51°17.33 2°38.644 -999 1.853235 13.476524 -0.408559
2009-04-09 08:36:08 51°17.332 2°38.608 -999 1.853028 13.474889 -0.373735
2009-04-09 08:36:13 51°17.333 2°38.578 -999 1.852925 13.474347 -0.373735
2009-04-09 08:36:18 51°17.334 2°38.548 -999 1.852925 13.474347 -0.373735
2009-04-09 08:36:22 51°17.335 2°38.524 -999 1.852925 13.474347 -0.373735
2009-04-09 08:36:28 51°17.336 2°38.488 -999 1.853028 13.475164 -0.408559
2009-04-09 08:36:33 51°17.337 2°38.458 -999 1.853028 13.475164 -0.373735
2009-04-09 08:36:38 51°17.339 2°38.428 -999 1.852719 13.472712 -0.408559
2009-04-09 08:36:43 51°17.34 2°38.398 -999 1.853028 13.475164 -0.408559
2009-04-09 08:36:48 51°17.342 2°38.368 -999 1.853338 13.477892 -0.408559
2009-04-09 08:36:53 51°17.344 2°38.338 -999 1.853338 13.477892 -0.408559
2009-04-09 08:36:58 51°17.346 2°38.308 -999 1.852719 13.472987 -0.373735
2009-04-09 08:37:03 51°17.347 2°38.278 -999 1.853132 13.476532 -0.373735
2009-04-09 08:37:08 51°17.349 2°38.248 -999 1.852719 13.473537 -0.408559
2009-04-09 08:37:13 51°17.351 2°38.218 -999 1.853441 13.47926 -0.373735
2009-04-09 08:37:18 51°17.352 2°38.187 -999 1.853235 13.4779 -0.408559
2009-04-09 08:37:23 51°17.353 2°38.157 -999 1.853235 13.4779 -0.408559
2009-04-09 08:37:28 51°17.354 2°38.127 -999 1.853028 13.47654 -0.408559
2009-04-09 08:37:33 51°17.356 2°38.097 -999 1.852512 13.472177 -0.373735
2009-04-09 08:37:38 51°17.357 2°38.067 -999 1.852719 13.473812 -0.408559
2009-04-09 08:37:43 51°17.358 2°38.037 -999 1.852615 13.472994 -0.408559
2009-04-09 08:37:47 51°17.359 2°38.013 -999 1.853338 13.478992 -0.408559
2009-04-09 08:37:53 51°17.361 2°37.977 -999 1.853338 13.478992 -0.408559
2009-04-09 08:37:58 51°17.363 2°37.947 -999 1.852719 13.474362 -0.408559
2009-04-09 08:38:03 51°17.365 2°37.917 -999 1.853235 13.47845 -0.373735
2009-04-09 08:38:07 51°17.366 2°37.893 -999 1.852822 13.475179 -0.408559
2009-04-09 08:38:13 51°17.368 2°37.857 -999 1.852822 13.475455 -0.408559
2009-04-09 08:38:18 51°17.37 2°37.828 -999 1.852615 13.473819 -0.373735
2009-04-09 08:38:23 51°17.372 2°37.798 -999 1.852615 13.473819 -0.373735
2009-04-09 08:38:28 51°17.374 2°37.768 -999 1.852615 13.473819 -0.408559
2009-04-09 08:38:34 51°17.376 2°37.733 -999 1.852615 13.473819 -0.408559
2009-04-09 08:38:38 51°17.377 2°37.709 -999 1.852822 13.47573 -0.373735
2009-04-09 08:38:43 51°17.379 2°37.679 -999 1.853338 13.480093 -0.408559
2009-04-09 08:38:47 51°17.38 2°37.656 -999 1.852615 13.474645 -0.373735
2009-04-09 08:38:54 51°17.382 2°37.614 -999 1.852615 13.474645 -0.373735
2009-04-09 08:38:58 51°17.384 2°37.59 -999 1.852822 13.47628 -0.373735
2009-04-09 08:39:03 51°17.385 2°37.561 -999 1.852615 13.474645 -0.373735
2009-04-09 08:39:07 51°17.387 2°37.537 -999 1.852719 13.475462 -0.408559
2009-04-09 08:39:14 51°17.389 2°37.496 -999 1.852719 13.475462 -0.408559
2009-04-09 08:39:18 51°17.39 2°37.472 -999 1.853028 13.477915 -0.408559
2009-04-09 08:39:23 51°17.391 2°37.443 -999 1.853028 13.477915 -0.408559
2009-04-09 08:39:28 51°17.393 2°37.413 -999 1.852719 13.475737 -0.408559
2009-04-09 08:39:33 51°17.394 2°37.383 -999 1.852719 13.476013 -0.408559
2009-04-09 08:39:38 51°17.395 2°37.354 -999 1.852306 13.472742 -0.408559
2009-04-09 08:39:43 51°17.397 2°37.324 -999 1.852615 13.475195 -0.408559
2009-04-09 08:39:48 51°17.397 2°37.294 -999 1.852306 13.472742 -0.408559
2009-04-09 08:39:53 51°17.399 2°37.265 -999 1.852306 13.472742 -0.408559
2009-04-09 08:39:58 51°17.4 2°37.235 -999 1.852512 13.474652 -0.373735
2009-04-09 08:40:02 51°17.401 2°37.211 -999 1.852822 13.477381 -0.408559
2009-04-09 08:40:08 51°17.403 2°37.175 -999 1.852202 13.472474 -0.408559
2009-04-09 08:40:14 51°17.404 2°37.14 -999 1.852719 13.476838 -0.408559
2009-04-09 08:40:18 51°17.405 2°37.116 -999 1.852202 13.472474 -0.408559
2009-04-09 08:40:22 51°17.406 2°37.092 -999 1.852202 13.472474 -0.408559
2009-04-09 08:40:28 51°17.408 2°37.056 -999 1.852512 13.475202 -0.408559
2009-04-09 08:40:33 51°17.409 2°37.026 -999 1.852512 13.475478 -0.408559
2009-04-09 08:40:38 51°17.41 2°36.996 -999 1.852719 13.477113 -0.408559
2009-04-09 08:40:42 51°17.411 2°36.972 -999 1.852615 13.476571 -0.373735
2009-04-09 08:40:48 51°17.412 2°36.936 -999 1.852306 13.474117 -0.373735
2009-04-09 08:40:53 51°17.412 2°36.906 -999 1.852306 13.474117 -0.373735
2009-04-09 08:40:58 51°17.412 2°36.876 -999 1.853235 13.481753 -0.408559
2009-04-09 08:41:02 51°17.413 2°36.852 -999 1.852306 13.474392 -0.373735
2009-04-09 08:41:08 51°17.413 2°36.816 -999 1.852719 13.477939 -0.408559
2009-04-09 08:41:13 51°17.413 2°36.786 -999 1.852512 13.476303 -0.408559
2009-04-09 08:41:18 51°17.412 2°36.756 -999 1.852615 13.477396 -0.408559
2009-04-09 08:41:22 51°17.412 2°36.731 -999 1.852615 13.477396 -0.408559
2009-04-09 08:41:28 51°17.411 2°36.695 -999 1.851996 13.472214 -0.373735
2009-04-09 08:41:33 51°17.411 2°36.664 -999 1.852409 13.475761 -0.408559
2009-04-09 08:41:38 51°17.41 2°36.634 -999 1.851893 13.471396 -0.408559
2009-04-09 08:41:43 51°17.41 2°36.604 -999 1.852306 13.474668 -0.408559
2009-04-09 08:41:48 51°17.409 2°36.573 -999 1.852409 13.475761 -0.373735
2009-04-09 08:41:54 51°17.409 2°36.537 -999 1.852409 13.475761 -0.373735
2009-04-09 08:41:58 51°17.409 2°36.513 -999 1.852409 13.475761 -0.373735
2009-04-09 08:42:03 51°17.409 2°36.483 -999 1.852099 13.473307 -0.408559
2009-04-09 08:42:08 51°17.408 2°36.452 -999 1.852822 13.479307 -0.408559
2009-04-09 08:42:13 51°17.408 2°36.422 -999 1.852203 13.474675 -0.408559
2009-04-09 08:42:18 51°17.408 2°36.392 -999 1.852306 13.475768 -0.373735
2009-04-09 08:42:23 51°17.407 2°36.362 -999 1.852306 13.475768 -0.373735
2009-04-09 08:42:28 51°17.407 2°36.331 -999 1.852512 13.477129 -0.408559
2009-04-09 08:42:33 51°17.407 2°36.301 -999 1.851893 13.472497 -0.408559
2009-04-09 08:42:38 51°17.406 2°36.271 -999 1.851686 13.470586 -0.408559
2009-04-09 08:42:43 51°17.406 2°36.241 -999 1.852306 13.475493 -0.408559
2009-04-09 08:42:47 51°17.406 2°36.217 -999 1.851893 13.472497 -0.408559
2009-04-09 08:42:53 51°17.407 2°36.181 -999 1.851893 13.472497 -0.408559
2009-04-09 08:42:58 51°17.407 2°36.151 -999 1.852822 13.480133 -0.408559
2009-04-09 08:43:03 51°17.408 2°36.121 -999 1.852306 13.476319 -0.408559
2009-04-09 08:43:09 51°17.408 2°36.085 -999 1.851893 13.473047 -0.408559
2009-04-09 08:43:14 51°17.409 2°36.055 -999 1.852099 13.474683 -0.408559
2009-04-09 08:43:18 51°17.409 2°36.032 -999 1.851996 13.473865 -0.408559
2009-04-09 08:43:23 51°17.41 2°36.002 -999 1.851996 13.473865 -0.408559
2009-04-09 08:43:28 51°17.41 2°35.972 -999 1.852512 13.47823 -0.408559
2009-04-09 08:43:34 51°17.411 2°35.937 -999 1.852409 13.477687 -0.408559
2009-04-09 08:43:38 51°17.411 2°35.913 -999 1.852409 13.477687 -0.408559
2009-04-09 08:43:42 51°17.412 2°35.889 -999 1.852409 13.477963 -0.373735
2009-04-09 08:43:48 51°17.413 2°35.854 -999 1.852512 13.478781 -0.408559
2009-04-09 08:43:54 51°17.414 2°35.819 -999 1.852512 13.478781 -0.408559
2009-04-09 08:43:58 51°17.415 2°35.795 -999 1.85148 13.470326 -0.408559
2009-04-09 08:44:02 51°17.415 2°35.77 -999 1.853029 13.482595 -0.408559
2009-04-09 08:44:08 51°17.416 2°35.735 -999 1.851996 13.474416 -0.373735
2009-04-09 08:44:13 51°17.418 2°35.706 -999 1.853441 13.486143 -0.408559
2009-04-09 08:44:18 51°17.419 2°35.676 -999 1.852409 13.478513 -0.408559
2009-04-09 08:44:22 51°17.421 2°35.654 -999 1.852409 13.478513 -0.408559
2009-04-09 08:44:28 51°17.424 2°35.619 -999 1.853132 13.484515 -0.408559
2009-04-09 08:44:33 51°17.426 2°35.591 -999 1.851996 13.475792 -0.408559
2009-04-09 08:44:38 51°17.427 2°35.562 -999 1.852822 13.482061 -0.408559
2009-04-09 08:44:42 51°17.429 2°35.54 -999 1.852203 13.477153 -0.408559
2009-04-09 08:44:48 51°17.431 2°35.505 -999 1.852099 13.476059 -0.408559
2009-04-09 08:44:53 51°17.432 2°35.477 -999 1.852099 13.476059 -0.408559
2009-04-09 08:44:58 51°17.434 2°35.448 -999 1.852512 13.479607 -0.408559
2009-04-09 08:45:02 51°17.436 2°35.426 -999 1.852306 13.477971 -0.408559
2009-04-09 08:45:08 51°17.437 2°35.39 -999 1.852512 13.479882 -0.408559
2009-04-09 08:45:13 51°17.44 2°35.361 -999 1.852409 13.479064 -0.408559
2009-04-09 08:45:18 51°17.442 2°35.333 -999 1.852616 13.480975 -0.408559
2009-04-09 08:45:22 51°17.444 2°35.31 -999 1.852616 13.480975 -0.408559
2009-04-09 08:45:28 51°17.447 2°35.276 -999 1.852203 13.478254 -0.408559
2009-04-09 08:45:33 51°17.449 2°35.247 -999 1.852822 13.483438 -0.408559
2009-04-09 08:45:38 51°17.451 2°35.219 -999 1.852512 13.480984 -0.408559
2009-04-09 08:45:43 51°17.454 2°35.191 -999 1.852616 13.481802 -0.408559
2009-04-09 08:45:48 51°17.456 2°35.162 -999 1.852306 13.479072 -0.408559
2009-04-09 08:45:54 51°17.46 2°35.129 -999 1.852306 13.479072 -0.408559
2009-04-09 08:45:58 51°17.461 2°35.106 -999 1.852512 13.480433 -0.408559
2009-04-09 08:46:03 51°17.464 2°35.079 -999 1.852512 13.480708 -0.408559
2009-04-09 08:46:08 51°17.467 2°35.051 -999 1.852512 13.480708 -0.408559
2009-04-09 08:46:14 51°17.471 2°35.016 -999 1.852616 13.481802 -0.408559
2009-04-09 08:46:18 51°17.474 2°34.993 -999 1.852925 13.484256 -0.408559
2009-04-09 08:46:23 51°17.477 2°34.965 -999 1.852925 13.484256 -0.408559
2009-04-09 08:46:27 51°17.48 2°34.943 -999 1.852512 13.481259 -0.408559
2009-04-09 08:46:33 51°17.483 2°34.91 -999 1.852512 13.481259 -0.408559
2009-04-09 08:46:38 51°17.486 2°34.882 -999 1.853029 13.485625 -0.408559
2009-04-09 08:46:43 51°17.49 2°34.854 -999 1.852822 13.484264 -0.408559
2009-04-09 08:46:47 51°17.492 2°34.831 -999 1.852822 13.484264 -0.408559
2009-04-09 08:46:53 51°17.496 2°34.798 -999 1.852822 13.484264 -0.408559
2009-04-09 08:46:58 51°17.499 2°34.77 -999 1.852616 13.482628 -0.408559
2009-04-09 08:47:03 51°17.502 2°34.742 -999 1.852719 13.483446 -0.408559
2009-04-09 08:47:08 51°17.506 2°34.714 -999 1.852512 13.48181 -0.408559
2009-04-09 08:47:14 51°17.51 2°34.68 -999 1.853338 13.488631 -0.408559
2009-04-09 08:47:18 51°17.513 2°34.658 -999 1.852203 13.479631 -0.408559
2009-04-09 08:47:23 51°17.516 2°34.63 -999 1.852203 13.479631 -0.408559
2009-04-09 08:47:28 51°17.52 2°34.601 -999 1.853235 13.488364 -0.408559
2009-04-09 08:47:34 51°17.524 2°34.567 -999 1.852099 13.479914 -0.373735
2009-04-09 08:47:38 51°17.527 2°34.544 -999 1.853648 13.492464 -0.408559
2009-04-09 08:47:42 51°17.529 2°34.521 -999 1.854371 13.49902 -0.408559
2009-04-09 08:47:48 51°17.532 2°34.487 -999 1.853132 13.489199 -0.408559
2009-04-09 08:47:54 51°17.534 2°34.452 -999 1.853132 13.489199 -0.408559
2009-04-09 08:47:58 51°17.534 2°34.429 -999 1.852822 13.486469 -0.408559
2009-04-09 08:48:02 51°17.534 2°34.406 -999 1.853338 13.490285 -0.373735
2009-04-09 08:48:08 51°17.534 2°34.371 -999 1.853958 13.49547 -0.408559
2009-04-09 08:48:13 51°17.532 2°34.342 -999 1.852512 13.483738 -0.408559
2009-04-09 08:48:18 51°17.529 2°34.314 -999 1.852099 13.48019 -0.373735
2009-04-09 08:48:22 51°17.527 2°34.292 -999 1.852099 13.48019 -0.373735
2009-04-09 08:48:28 51°17.522 2°34.258 -999 1.853545 13.491646 -0.408559
2009-04-09 08:48:33 51°17.518 2°34.231 -999 1.852616 13.484832 -0.408559
2009-04-09 08:48:38 51°17.512 2°34.204 -999 1.852099 13.480465 -0.408559
2009-04-09 08:48:42 51°17.506 2°34.184 -999 1.849828 13.461915 -0.373735
2009-04-09 08:48:48 51°17.498 2°34.152 -999 1.852306 13.481826 -0.408559
2009-04-09 08:48:53 51°17.489 2°34.127 -999 1.852306 13.481826 -0.408559
2009-04-09 08:48:58 51°17.481 2°34.101 -999 1.850138 13.464644 -0.408559
2009-04-09 08:49:02 51°17.473 2°34.082 -999 1.850757 13.469553 -0.408559
2009-04-09 08:49:08 51°17.461 2°34.054 -999 1.849725 13.460821 -0.408559
2009-04-09 08:49:13 51°17.45 2°34.031 -999 1.850964 13.470914 -0.408559
2009-04-09 08:49:18 51°17.439 2°34.009 -999 1.849621 13.460003 -0.408559
2009-04-09 08:49:23 51°17.427 2°33.988 -999 1.849621 13.460003 -0.408559
2009-04-09 08:49:28 51°17.414 2°33.968 -999 1.849621 13.459728 -0.408559
2009-04-09 08:49:33 51°17.401 2°33.949 -999 1.850138 13.463819 -0.408559
2009-04-09 08:49:38 51°17.387 2°33.93 -999 1.850034 13.463001 -0.408559
2009-04-09 08:49:43 51°17.374 2°33.911 -999 1.848899 13.454002 -0.408559
2009-04-09 08:49:48 51°17.359 2°33.895 -999 1.849312 13.457274 -0.408559
2009-04-09 08:49:53 51°17.345 2°33.877 -999 1.849312 13.457274 -0.408559
2009-04-09 08:49:58 51°17.33 2°33.861 -999 1.84735 13.441732 -0.408559
2009-04-09 08:50:03 51°17.315 2°33.845 -999 1.849312 13.457274 -0.408559
2009-04-09 08:50:08 51°17.301 2°33.828 -999 1.848795 13.453184 -0.408559
2009-04-09 08:50:14 51°17.283 2°33.808 -999 1.849105 13.455638 -0.408559
2009-04-09 08:50:18 51°17.271 2°33.794 -999 1.849002 13.455095 -0.408559
2009-04-09 08:50:23 51°17.257 2°33.776 -999 1.849002 13.455095 -0.408559
2009-04-09 08:50:27 51°17.245 2°33.762 -999 1.848589 13.451548 -0.408559
2009-04-09 08:50:34 51°17.226 2°33.738 -999 1.848382 13.450187 -0.408559
2009-04-09 08:50:38 51°17.214 2°33.723 -999 1.849931 13.463008 -0.408559
2009-04-09 08:50:43 51°17.2 2°33.705 -999 1.849208 13.457831 -0.408559
2009-04-09 08:50:47 51°17.189 2°33.689 -999 1.849208 13.458106 -0.408559
2009-04-09 08:50:54 51°17.169 2°33.664 -999 1.849208 13.458106 -0.408559
2009-04-09 08:50:58 51°17.158 2°33.649 -999 1.848899 13.455927 -0.408559
2009-04-09 08:51:03 51°17.144 2°33.631 -999 1.849105 13.457838 -0.408559
2009-04-09 08:51:08 51°17.13 2°33.612 -999 1.847763 13.446927 -0.408559
2009-04-09 08:51:13 51°17.116 2°33.593 -999 1.848692 13.454015 -0.408559
2009-04-09 08:51:18 51°17.103 2°33.574 -999 1.848279 13.450743 -0.408559
2009-04-09 08:51:23 51°17.089 2°33.554 -999 1.848279 13.450743 -0.408559
2009-04-09 08:51:28 51°17.076 2°33.534 -999 1.849931 13.464384 -0.408559
2009-04-09 08:51:34 51°17.061 2°33.508 -999 1.848796 13.455658 -0.373735
2009-04-09 08:51:38 51°17.051 2°33.491 -999 1.848899 13.456752 -0.408559
2009-04-09 08:51:42 51°17.041 2°33.474 -999 1.848796 13.455933 -0.408559
2009-04-09 08:51:48 51°17.026 2°33.449 -999 1.849312 13.460575 -0.408559
2009-04-09 08:51:53 51°17.014 2°33.427 -999 1.849312 13.460575 -0.408559
2009-04-09 08:51:58 51°17.002 2°33.406 -999 1.849312 13.460575 -0.408559
2009-04-09 08:52:02 51°16.992 2°33.389 -999 1.849312 13.461125 -0.408559
2009-04-09 08:52:08 51°16.977 2°33.363 -999 1.849828 13.465216 -0.408559
2009-04-09 08:52:13 51°16.965 2°33.341 -999 1.849209 13.460307 -0.408559
2009-04-09 08:52:18 51°16.953 2°33.319 -999 1.848899 13.457852 -0.408559
2009-04-09 08:52:23 51°16.941 2°33.298 -999 1.848899 13.457852 -0.408559
2009-04-09 08:52:28 51°16.929 2°33.277 -999 1.848589 13.455397 -0.408559
2009-04-09 08:52:34 51°16.914 2°33.251 -999 1.849209 13.460307 -0.408559
2009-04-09 08:52:38 51°16.904 2°33.234 -999 1.849312 13.4614 -0.373735
2009-04-09 08:52:42 51°16.895 2°33.216 -999 1.848796 13.457309 -0.408559
2009-04-09 08:52:48 51°16.88 2°33.19 -999 1.849105 13.460039 -0.408559
2009-04-09 08:52:54 51°16.866 2°33.164 -999 1.849105 13.460039 -0.408559
2009-04-09 08:52:58 51°16.857 2°33.146 -999 1.848796 13.457584 -0.408559
2009-04-09 08:53:02 51°16.847 2°33.129 -999 1.849209 13.460857 -0.408559
2009-04-09 08:53:08 51°16.833 2°33.102 -999 1.848796 13.457859 -0.408559
2009-04-09 08:53:13 51°16.821 2°33.081 -999 1.849312 13.46195 -0.408559
2009-04-09 08:53:18 51°16.809 2°33.059 -999 1.849312 13.462226 -0.408559
2009-04-09 08:53:22 51°16.8 2°33.041 -999 1.849312 13.462226 -0.408559
2009-04-09 08:53:28 51°16.785 2°33.015 -999 1.848692 13.457041 -0.408559
2009-04-09 08:53:33 51°16.774 2°32.993 -999 1.848796 13.458134 -0.408559
2009-04-09 08:53:38 51°16.762 2°32.971 -999 1.849415 13.463319 -0.408559
2009-04-09 08:53:43 51°16.75 2°32.949 -999 1.849105 13.461414 -0.408559
2009-04-09 08:53:48 51°16.738 2°32.928 -999 1.848486 13.456229 -0.408559
2009-04-09 08:53:54 51°16.724 2°32.901 -999 1.848486 13.456229 -0.408559
2009-04-09 08:53:58 51°16.714 2°32.884 -999 1.849518 13.464688 -0.408559
2009-04-09 08:54:02 51°16.705 2°32.866 -999 1.849622 13.465782 -0.408559
2009-04-09 08:54:08 51°16.691 2°32.84 -999 1.848899 13.460053 -0.408559
2009-04-09 08:54:13 51°16.679 2°32.818 -999 1.849415 13.464145 -0.408559
2009-04-09 08:54:18 51°16.667 2°32.796 -999 1.848692 13.458416 -0.408559
2009-04-09 08:54:22 51°16.657 2°32.779 -999 1.848692 13.458416 -0.408559
2009-04-09 08:54:28 51°16.643 2°32.753 -999 1.849105 13.461414 -0.408559
2009-04-09 08:54:33 51°16.631 2°32.731 -999 1.849105 13.46169 -0.408559
2009-04-09 08:54:38 51°16.619 2°32.71 -999 1.848796 13.459234 -0.408559
2009-04-09 08:54:43 51°16.607 2°32.688 -999 1.848899 13.460053 -0.408559
2009-04-09 08:54:48 51°16.595 2°32.666 -999 1.848796 13.459785 -0.408559
2009-04-09 08:54:54 51°16.581 2°32.639 -999 1.848796 13.459785 -0.408559
2009-04-09 08:54:58 51°16.572 2°32.622 -999 1.848796 13.459785 -0.408559
2009-04-09 08:55:02 51°16.563 2°32.604 -999 1.849002 13.461422 -0.408559
2009-04-09 08:55:08 51°16.549 2°32.577 -999 1.849105 13.462515 -0.408559
2009-04-09 08:55:13 51°16.537 2°32.555 -999 1.848796 13.46006 -0.408559
2009-04-09 08:55:18 51°16.525 2°32.533 -999 1.848899 13.460878 -0.408559
2009-04-09 08:55:22 51°16.516 2°32.515 -999 1.848899 13.460878 -0.408559
2009-04-09 08:55:28 51°16.502 2°32.489 -999 1.848899 13.460878 -0.408559
2009-04-09 08:55:33 51°16.49 2°32.467 -999 1.848899 13.461154 -0.408559
2009-04-09 08:55:38 51°16.479 2°32.444 -999 1.849209 13.463884 -0.408559
2009-04-09 08:55:43 51°16.467 2°32.423 -999 1.848692 13.459792 -0.408559
2009-04-09 08:55:48 51°16.455 2°32.4 -999 1.849002 13.462523 -0.408559
2009-04-09 08:55:54 51°16.441 2°32.374 -999 1.849002 13.462523 -0.408559
2009-04-09 08:55:58 51°16.432 2°32.356 -999 1.848796 13.460886 -0.408559
2009-04-09 08:56:02 51°16.422 2°32.339 -999 1.848589 13.459249 -0.408559
2009-04-09 08:56:08 51°16.409 2°32.312 -999 1.848796 13.460886 -0.408559
2009-04-09 08:56:13 51°16.397 2°32.29 -999 1.848692 13.460067 -0.408559
2009-04-09 08:56:18 51°16.385 2°32.268 -999 1.848589 13.459249 -0.408559
2009-04-09 08:56:22 51°16.376 2°32.25 -999 1.848589 13.459249 -0.408559
2009-04-09 08:56:28 51°16.361 2°32.224 -999 1.848073 13.455156 -0.408559
2009-04-09 08:56:33 51°16.349 2°32.202 -999 1.848486 13.45843 -0.408559
2009-04-09 08:56:38 51°16.337 2°32.181 -999 1.848899 13.462255 -0.408559
2009-04-09 08:56:43 51°16.325 2°32.158 -999 1.848176 13.4568 -0.408559
2009-04-09 08:56:48 51°16.313 2°32.136 -999 1.848486 13.459531 -0.408559